2016 Cux-Wetter.de -Die Nutzung der Wetterdaten nur mit ausdrcklicher Genehmigung
Wetterdaten: Sonntag, 03.02.2019
Datum Zeit Temp. A. Feuchte A. Luftdruck Regen Wind Richtung Richtung Sonnenschein Solar Taupunkt Windchill Windben
03.02.2019 00:00 2,0 C 94 % 1006,4 hPa 0,0 l/m 9,1 km/h (2 Bft) NW 323 0 min 0 W/m 1,1 C -0,5 C 16,1 km/h (3 Bft)
03.02.2019 00:03 2,0 C 94 % 1006,4 hPa 0,0 l/m 10,6 km/h (2 Bft) NW 323 0 min 0 W/m 1,1 C -1,7 C 20,9 km/h (4 Bft)
03.02.2019 00:06 2,0 C 94 % 1006,5 hPa 0,0 l/m 8,4 km/h (2 Bft) N-NW 331 0 min 0 W/m 1,1 C 0,1 C 16,1 km/h (3 Bft)
03.02.2019 00:09 2,1 C 94 % 1006,5 hPa 0,0 l/m 7,4 km/h (2 Bft) N-NW 331 0 min 0 W/m 1,2 C 1,1 C 16,1 km/h (3 Bft)
03.02.2019 00:12 2,1 C 94 % 1006,5 hPa 0,0 l/m 9,9 km/h (2 Bft) NW 306 0 min 0 W/m 1,2 C -1,1 C 17,7 km/h (3 Bft)
03.02.2019 00:15 2,1 C 94 % 1006,5 hPa 0,0 l/m 8,9 km/h (2 Bft) N-NW 331 0 min 0 W/m 1,2 C -0,2 C 16,1 km/h (3 Bft)
03.02.2019 00:18 2,1 C 94 % 1006,5 hPa 0,0 l/m 9,8 km/h (2 Bft) N-NW 328 0 min 0 W/m 1,2 C -1,0 C 17,7 km/h (3 Bft)
03.02.2019 00:21 2,1 C 94 % 1006,6 hPa 0,0 l/m 9,5 km/h (2 Bft) N-NW 339 0 min 0 W/m 1,2 C -0,7 C 16,1 km/h (3 Bft)
03.02.2019 00:24 2,1 C 94 % 1006,6 hPa 0,0 l/m 9,1 km/h (2 Bft) N-NW 329 0 min 0 W/m 1,2 C -0,4 C 16,1 km/h (3 Bft)
03.02.2019 00:27 2,2 C 94 % 1006,7 hPa 0,0 l/m 8,2 km/h (2 Bft) N-NW 341 0 min 0 W/m 1,3 C 0,5 C 19,3 km/h (3 Bft)
03.02.2019 00:30 2,2 C 94 % 1006,8 hPa 0,0 l/m 8,1 km/h (2 Bft) N-NW 333 0 min 0 W/m 1,3 C 0,6 C 20,9 km/h (4 Bft)
03.02.2019 00:33 2,2 C 94 % 1007,0 hPa 0,0 l/m 9,1 km/h (2 Bft) N-NW 344 0 min 0 W/m 1,3 C -0,3 C 16,1 km/h (3 Bft)
03.02.2019 00:36 2,2 C 94 % 1007,1 hPa 0,0 l/m 10,1 km/h (2 Bft) N-NW 336 0 min 0 W/m 1,3 C -1,1 C 24,1 km/h (4 Bft)
03.02.2019 00:39 2,2 C 93 % 1007,1 hPa 0,0 l/m 13,4 km/h (3 Bft) NW 310 0 min 0 W/m 1,2 C -3,4 C 27,4 km/h (5 Bft)
03.02.2019 00:42 2,2 C 93 % 1007,1 hPa 0,0 l/m 12,7 km/h (3 Bft) N 360 0 min 0 W/m 1,2 C -2,9 C 25,7 km/h (4 Bft)
03.02.2019 00:45 2,1 C 93 % 1007,1 hPa 0,0 l/m 12,1 km/h (2 Bft) N 355 0 min 0 W/m 1,1 C -2,7 C 17,7 km/h (3 Bft)
03.02.2019 00:48 2,1 C 93 % 1007,1 hPa 0,0 l/m 12,2 km/h (2 Bft) N-NW 333 0 min 0 W/m 1,1 C -2,7 C 19,3 km/h (3 Bft)
03.02.2019 00:51 2,1 C 93 % 1007,2 hPa 0,0 l/m 10,3 km/h (2 Bft) N-NW 345 0 min 0 W/m 1,1 C -1,4 C 24,1 km/h (4 Bft)
03.02.2019 00:54 2,1 C 93 % 1007,2 hPa 0,0 l/m 10,2 km/h (2 Bft) N 360 0 min 0 W/m 1,1 C -1,3 C 20,9 km/h (4 Bft)
03.02.2019 00:57 2,1 C 93 % 1007,3 hPa 0,0 l/m 9,5 km/h (2 Bft) N-NW 347 0 min 0 W/m 1,1 C -0,7 C 19,3 km/h (3 Bft)
03.02.2019 01:00 2,1 C 93 % 1007,4 hPa 0,0 l/m 9,3 km/h (2 Bft) NW 325 0 min 0 W/m 1,1 C -0,6 C 20,9 km/h (4 Bft)
03.02.2019 01:03 2,1 C 93 % 1007,5 hPa 0,0 l/m 10,1 km/h (2 Bft) N 350 0 min 0 W/m 1,1 C -1,2 C 16,1 km/h (3 Bft)
03.02.2019 01:06 2,1 C 93 % 1007,5 hPa 0,0 l/m 8,8 km/h (2 Bft) NW 313 0 min 0 W/m 1,1 C -0,2 C 14,5 km/h (3 Bft)
03.02.2019 01:09 2,1 C 93 % 1007,6 hPa 0,0 l/m 8,1 km/h (2 Bft) N-NW 338 0 min 0 W/m 1,1 C 0,5 C 16,1 km/h (3 Bft)
03.02.2019 01:12 2,1 C 93 % 1007,6 hPa 0,0 l/m 8,3 km/h (2 Bft) N-NW 334 0 min 0 W/m 1,1 C 0,3 C 16,1 km/h (3 Bft)
03.02.2019 01:15 2,1 C 93 % 1007,7 hPa 0,0 l/m 7,7 km/h (2 Bft) N-NW 343 0 min 0 W/m 1,1 C 0,8 C 14,5 km/h (3 Bft)
03.02.2019 01:18 2,1 C 93 % 1007,7 hPa 0,0 l/m 6,5 km/h (2 Bft) N 355 0 min 0 W/m 1,1 C 2,0 C 14,5 km/h (3 Bft)
03.02.2019 01:21 2,1 C 93 % 1007,7 hPa 0,0 l/m 7,2 km/h (2 Bft) N-NW 344 0 min 0 W/m 1,1 C 1,3 C 14,5 km/h (3 Bft)
03.02.2019 01:24 2,1 C 93 % 1007,6 hPa 0,0 l/m 6,0 km/h (2 Bft) N-NW 340 0 min 0 W/m 1,1 C 2,1 C 9,7 km/h (2 Bft)
03.02.2019 01:27 2,1 C 93 % 1007,7 hPa 0,0 l/m 6,3 km/h (2 Bft) N-NW 339 0 min 0 W/m 1,1 C 2,1 C 9,7 km/h (2 Bft)
03.02.2019 01:30 2,1 C 93 % 1007,7 hPa 0,0 l/m 8,2 km/h (2 Bft) N-NW 336 0 min 0 W/m 1,1 C 0,4 C 16,1 km/h (3 Bft)
03.02.2019 01:33 2,2 C 93 % 1007,8 hPa 0,0 l/m 6,6 km/h (2 Bft) N-NW 335 0 min 0 W/m 1,2 C 2,0 C 12,9 km/h (3 Bft)
03.02.2019 01:36 2,2 C 93 % 1007,8 hPa 0,0 l/m 7,0 km/h (2 Bft) NW 320 0 min 0 W/m 1,2 C 1,6 C 16,1 km/h (3 Bft)
03.02.2019 01:39 2,2 C 93 % 1007,8 hPa 0,0 l/m 6,7 km/h (2 Bft) NW 323 0 min 0 W/m 1,2 C 1,9 C 12,9 km/h (3 Bft)
03.02.2019 01:42 2,2 C 93 % 1007,9 hPa 0,0 l/m 6,5 km/h (2 Bft) NW 322 0 min 0 W/m 1,2 C 2,1 C 9,7 km/h (2 Bft)
03.02.2019 01:45 2,2 C 93 % 1007,9 hPa 0,0 l/m 5,7 km/h (2 Bft) NW 323 0 min 0 W/m 1,2 C 2,2 C 12,9 km/h (3 Bft)
03.02.2019 01:48 2,2 C 93 % 1008,0 hPa 0,0 l/m 5,3 km/h (1 Bft) NW 323 0 min 0 W/m 1,2 C 2,2 C 9,7 km/h (2 Bft)
03.02.2019 01:51 2,2 C 93 % 1008,0 hPa 0,0 l/m 6,1 km/h (2 Bft) N-NW 343 0 min 0 W/m 1,2 C 2,2 C 12,9 km/h (3 Bft)
03.02.2019 01:54 2,2 C 93 % 1008,1 hPa 0,0 l/m 6,3 km/h (2 Bft) N-NW 342 0 min 0 W/m 1,2 C 2,2 C 14,5 km/h (3 Bft)
03.02.2019 01:57 2,2 C 93 % 1008,2 hPa 0,0 l/m 7,3 km/h (2 Bft) N-NW 334 0 min 0 W/m 1,2 C 1,3 C 16,1 km/h (3 Bft)
03.02.2019 02:00 2,2 C 93 % 1008,2 hPa 0,0 l/m 7,0 km/h (2 Bft) N-NW 338 0 min 0 W/m 1,2 C 1,6 C 14,5 km/h (3 Bft)
03.02.2019 02:03 2,2 C 93 % 1008,3 hPa 0,0 l/m 9,7 km/h (2 Bft) N-NW 331 0 min 0 W/m 1,2 C -0,8 C 17,7 km/h (3 Bft)
03.02.2019 02:06 2,2 C 93 % 1008,3 hPa 0,0 l/m 11,9 km/h (2 Bft) N-NW 340 0 min 0 W/m 1,2 C -2,4 C 19,3 km/h (3 Bft)
03.02.2019 02:09 2,2 C 93 % 1008,3 hPa 0,0 l/m 9,4 km/h (2 Bft) N 5 0 min 0 W/m 1,2 C -0,5 C 16,1 km/h (3 Bft)
03.02.2019 02:12 2,2 C 93 % 1008,2 hPa 0,0 l/m 8,5 km/h (2 Bft) N-NW 331 0 min 0 W/m 1,2 C 0,2 C 17,7 km/h (3 Bft)
03.02.2019 02:15 2,2 C 93 % 1008,2 hPa 0,0 l/m 10,4 km/h (2 Bft) N 5 0 min 0 W/m 1,2 C -1,3 C 19,3 km/h (3 Bft)
03.02.2019 02:18 2,2 C 93 % 1008,3 hPa 0,0 l/m 8,8 km/h (2 Bft) N-NW 338 0 min 0 W/m 1,2 C -0,0 C 17,7 km/h (3 Bft)
03.02.2019 02:21 2,1 C 93 % 1008,3 hPa 0,0 l/m 10,3 km/h (2 Bft) N 355 0 min 0 W/m 1,1 C -1,4 C 19,3 km/h (3 Bft)
03.02.2019 02:24 2,1 C 93 % 1008,3 hPa 0,0 l/m 5,9 km/h (2 Bft) N-NW 340 0 min 0 W/m 1,1 C 2,1 C 12,9 km/h (3 Bft)
03.02.2019 02:27 2,1 C 93 % 1008,3 hPa 0,0 l/m 7,0 km/h (2 Bft) N 355 0 min 0 W/m 1,1 C 1,5 C 16,1 km/h (3 Bft)
03.02.2019 02:30 2,1 C 93 % 1008,4 hPa 0,0 l/m 7,4 km/h (2 Bft) N-NW 331 0 min 0 W/m 1,1 C 1,1 C 16,1 km/h (3 Bft)
03.02.2019 02:33 2,0 C 93 % 1008,5 hPa 0,0 l/m 7,7 km/h (2 Bft) N-NW 344 0 min 0 W/m 1,0 C 0,7 C 17,7 km/h (3 Bft)
03.02.2019 02:36 1,9 C 93 % 1008,7 hPa 0,0 l/m 7,8 km/h (2 Bft) N-NW 346 0 min 0 W/m 0,9 C 0,5 C 16,1 km/h (3 Bft)
03.02.2019 02:39 1,9 C 92 % 1008,7 hPa 0,0 l/m 9,6 km/h (2 Bft) N 360 0 min 0 W/m 0,7 C -1,0 C 19,3 km/h (3 Bft)
03.02.2019 02:42 1,9 C 92 % 1008,7 hPa 0,0 l/m 9,5 km/h (2 Bft) N-NW 344 0 min 0 W/m 0,7 C -1,0 C 16,1 km/h (3 Bft)
03.02.2019 02:45 1,8 C 92 % 1008,7 hPa 0,0 l/m 8,3 km/h (2 Bft) N-NW 335 0 min 0 W/m 0,6 C -0,0 C 17,7 km/h (3 Bft)
03.02.2019 02:48 1,8 C 92 % 1008,7 hPa 0,0 l/m 7,3 km/h (2 Bft) NW 325 0 min 0 W/m 0,6 C 0,9 C 14,5 km/h (3 Bft)
03.02.2019 02:51 1,8 C 92 % 1008,7 hPa 0,0 l/m 8,5 km/h (2 Bft) N-NW 343 0 min 0 W/m 0,6 C -0,2 C 16,1 km/h (3 Bft)
03.02.2019 02:54 1,8 C 92 % 1008,6 hPa 0,0 l/m 11,2 km/h (2 Bft) N-NW 327 0 min 0 W/m 0,6 C -2,4 C 19,3 km/h (3 Bft)
03.02.2019 02:57 1,7 C 92 % 1008,7 hPa 0,0 l/m 9,9 km/h (2 Bft) NW 312 0 min 0 W/m 0,5 C -1,5 C 17,7 km/h (3 Bft)
03.02.2019 03:00 1,7 C 92 % 1008,7 hPa 0,0 l/m 9,3 km/h (2 Bft) NW 310 0 min 0 W/m 0,5 C -1,0 C 16,1 km/h (3 Bft)
03.02.2019 03:03 1,7 C 92 % 1008,7 hPa 0,0 l/m 9,7 km/h (2 Bft) N-NW 343 0 min 0 W/m 0,5 C -1,3 C 17,7 km/h (3 Bft)
03.02.2019 03:06 1,7 C 92 % 1008,7 hPa 0,0 l/m 11,0 km/h (2 Bft) NW 315 0 min 0 W/m 0,5 C -2,3 C 22,5 km/h (4 Bft)
03.02.2019 03:09 1,7 C 92 % 1008,6 hPa 0,0 l/m 12,3 km/h (2 Bft) N-NW 333 0 min 0 W/m 0,5 C -3,2 C 22,5 km/h (4 Bft)
03.02.2019 03:12 1,7 C 92 % 1008,7 hPa 0,0 l/m 14,5 km/h (3 Bft) N-NW 346 0 min 0 W/m 0,5 C -4,6 C 29,0 km/h (5 Bft)
03.02.2019 03:15 1,6 C 92 % 1008,7 hPa 0,0 l/m 13,4 km/h (3 Bft) N-NW 336 0 min 0 W/m 0,4 C -4,1 C 25,7 km/h (4 Bft)
03.02.2019 03:18 1,6 C 92 % 1008,7 hPa 0,0 l/m 15,0 km/h (3 Bft) NW 318 0 min 0 W/m 0,4 C -5,0 C 24,1 km/h (4 Bft)
03.02.2019 03:21 1,6 C 92 % 1008,7 hPa 0,0 l/m 13,2 km/h (3 Bft) N 360 0 min 0 W/m 0,4 C -4,0 C 22,5 km/h (4 Bft)
03.02.2019 03:24 1,5 C 92 % 1008,7 hPa 0,0 l/m 13,4 km/h (3 Bft) N 350 0 min 0 W/m 0,3 C -4,2 C 24,1 km/h (4 Bft)
03.02.2019 03:27 1,5 C 92 % 1008,7 hPa 0,0 l/m 12,2 km/h (2 Bft) N 349 0 min 0 W/m 0,3 C -3,4 C 19,3 km/h (3 Bft)
03.02.2019 03:30 1,5 C 92 % 1008,9 hPa 0,0 l/m 8,5 km/h (2 Bft) N-NW 346 0 min 0 W/m 0,3 C -0,5 C 17,7 km/h (3 Bft)
03.02.2019 03:33 1,5 C 92 % 1009,0 hPa 0,0 l/m 7,3 km/h (2 Bft) N-NW 345 0 min 0 W/m 0,3 C 0,6 C 14,5 km/h (3 Bft)
03.02.2019 03:36 1,5 C 92 % 1009,1 hPa 0,0 l/m 8,3 km/h (2 Bft) NW 322 0 min 0 W/m 0,3 C -0,3 C 14,5 km/h (3 Bft)
03.02.2019 03:39 1,5 C 92 % 1009,2 hPa 0,0 l/m 8,0 km/h (2 Bft) NW 325 0 min 0 W/m 0,3 C -0,1 C 14,5 km/h (3 Bft)
03.02.2019 03:42 1,5 C 92 % 1009,3 hPa 0,0 l/m 8,7 km/h (2 Bft) N-NW 347 0 min 0 W/m 0,3 C -0,7 C 14,5 km/h (3 Bft)
03.02.2019 03:45 1,5 C 92 % 1009,3 hPa 0,0 l/m 9,2 km/h (2 Bft) N-NW 345 0 min 0 W/m 0,3 C -1,1 C 16,1 km/h (3 Bft)
03.02.2019 03:48 1,6 C 92 % 1009,3 hPa 0,0 l/m 7,1 km/h (2 Bft) NW 324 0 min 0 W/m 0,4 C 0,9 C 16,1 km/h (3 Bft)
03.02.2019 03:51 1,6 C 92 % 1009,4 hPa 0,0 l/m 7,7 km/h (2 Bft) N 350 0 min 0 W/m 0,4 C 0,3 C 16,1 km/h (3 Bft)
03.02.2019 03:54 1,6 C 92 % 1009,4 hPa 0,0 l/m 9,5 km/h (2 Bft) N-NW 329 0 min 0 W/m 0,4 C -1,3 C 17,7 km/h (3 Bft)
03.02.2019 03:57 1,6 C 92 % 1009,3 hPa 0,0 l/m 9,5 km/h (2 Bft) NW 318 0 min 0 W/m 0,4 C -1,3 C 17,7 km/h (3 Bft)
03.02.2019 04:00 1,6 C 92 % 1009,5 hPa 0,0 l/m 10,5 km/h (2 Bft) NW 323 0 min 0 W/m 0,4 C -2,1 C 17,7 km/h (3 Bft)
03.02.2019 04:03 1,6 C 92 % 1009,4 hPa 0,0 l/m 11,2 km/h (2 Bft) N-NW 331 0 min 0 W/m 0,4 C -2,6 C 17,7 km/h (3 Bft)
03.02.2019 04:06 1,7 C 92 % 1009,5 hPa 0,0 l/m 10,3 km/h (2 Bft) N 351 0 min 0 W/m 0,5 C -1,8 C 17,7 km/h (3 Bft)
03.02.2019 04:09 1,7 C 92 % 1009,6 hPa 0,0 l/m 8,3 km/h (2 Bft) N 5 0 min 0 W/m 0,5 C -0,1 C 17,7 km/h (3 Bft)
03.02.2019 04:12 1,7 C 92 % 1009,7 hPa 0,0 l/m 12,1 km/h (2 Bft) NW 323 0 min 0 W/m 0,5 C -3,1 C 17,7 km/h (3 Bft)
03.02.2019 04:15 1,7 C 92 % 1009,9 hPa 0,0 l/m 8,5 km/h (2 Bft) N-NW 340 0 min 0 W/m 0,5 C -0,3 C 17,7 km/h (3 Bft)
03.02.2019 04:18 1,7 C 92 % 1009,9 hPa 0,0 l/m 9,2 km/h (2 Bft) N 9 0 min 0 W/m 0,5 C -0,9 C 17,7 km/h (3 Bft)
03.02.2019 04:21 1,8 C 92 % 1009,9 hPa 0,0 l/m 7,9 km/h (2 Bft) N 355 0 min 0 W/m 0,6 C 0,3 C 14,5 km/h (3 Bft)
03.02.2019 04:24 1,8 C 92 % 1009,8 hPa 0,0 l/m 9,7 km/h (2 Bft) N-NW 335 0 min 0 W/m 0,6 C -1,2 C 17,7 km/h (3 Bft)
03.02.2019 04:27 1,8 C 92 % 1009,9 hPa 0,0 l/m 9,3 km/h (2 Bft) N-NW 330 0 min 0 W/m 0,6 C -0,9 C 14,5 km/h (3 Bft)
03.02.2019 04:30 1,8 C 92 % 1010,0 hPa 0,0 l/m 8,2 km/h (2 Bft) N 355 0 min 0 W/m 0,6 C 0,1 C 16,1 km/h (3 Bft)
03.02.2019 04:33 1,8 C 92 % 1010,0 hPa 0,0 l/m 8,9 km/h (2 Bft) N-NW 338 0 min 0 W/m 0,6 C -0,6 C 17,7 km/h (3 Bft)
03.02.2019 04:36 1,8 C 92 % 1010,1 hPa 0,0 l/m 7,0 km/h (2 Bft) N 351 0 min 0 W/m 0,6 C 1,2 C 12,9 km/h (3 Bft)
03.02.2019 04:39 1,8 C 92 % 1010,1 hPa 0,0 l/m 8,0 km/h (2 Bft) N-NW 342 0 min 0 W/m 0,6 C 0,2 C 12,9 km/h (3 Bft)
03.02.2019 04:42 1,8 C 92 % 1010,1 hPa 0,0 l/m 9,6 km/h (2 Bft) N-NW 338 0 min 0 W/m 0,6 C -1,1 C 14,5 km/h (3 Bft)
03.02.2019 04:45 1,8 C 92 % 1010,1 hPa 0,0 l/m 10,5 km/h (2 Bft) NW 323 0 min 0 W/m 0,6 C -1,8 C 17,7 km/h (3 Bft)
03.02.2019 04:48 1,8 C 92 % 1010,1 hPa 0,0 l/m 7,8 km/h (2 Bft) N-NW 333 0 min 0 W/m 0,6 C 0,4 C 14,5 km/h (3 Bft)
03.02.2019 04:51 1,9 C 91 % 1010,1 hPa 0,0 l/m 7,9 km/h (2 Bft) N-NW 329 0 min 0 W/m 0,6 C 0,4 C 16,1 km/h (3 Bft)
03.02.2019 04:54 1,8 C 91 % 1010,1 hPa 0,0 l/m 7,7 km/h (2 Bft) N-NW 329 0 min 0 W/m 0,5 C 0,5 C 12,9 km/h (3 Bft)
03.02.2019 04:57 1,9 C 91 % 1010,2 hPa 0,0 l/m 7,5 km/h (2 Bft) N-NW 338 0 min 0 W/m 0,6 C 0,8 C 14,5 km/h (3 Bft)
03.02.2019 05:00 1,9 C 91 % 1010,2 hPa 0,0 l/m 7,3 km/h (2 Bft) N-NW 340 0 min 0 W/m 0,6 C 1,0 C 14,5 km/h (3 Bft)
03.02.2019 05:03 1,9 C 91 % 1010,3 hPa 0,0 l/m 8,1 km/h (2 Bft) NW 326 0 min 0 W/m 0,6 C 0,3 C 14,5 km/h (3 Bft)
03.02.2019 05:06 1,9 C 91 % 1010,3 hPa 0,0 l/m 7,0 km/h (2 Bft) NW 326 0 min 0 W/m 0,6 C 1,3 C 12,9 km/h (3 Bft)
03.02.2019 05:09 1,9 C 91 % 1010,4 hPa 0,0 l/m 7,4 km/h (2 Bft) NW 325 0 min 0 W/m 0,6 C 0,9 C 14,5 km/h (3 Bft)
03.02.2019 05:12 1,9 C 91 % 1010,5 hPa 0,0 l/m 7,6 km/h (2 Bft) N-NW 331 0 min 0 W/m 0,6 C 0,7 C 12,9 km/h (3 Bft)
03.02.2019 05:15 1,9 C 91 % 1010,5 hPa 0,0 l/m 7,7 km/h (2 Bft) NW 319 0 min 0 W/m 0,6 C 0,6 C 16,1 km/h (3 Bft)
03.02.2019 05:18 1,9 C 91 % 1010,5 hPa 0,0 l/m 5,8 km/h (2 Bft) NW 317 0 min 0 W/m 0,6 C 1,9 C 12,9 km/h (3 Bft)
03.02.2019 05:21 1,9 C 91 % 1010,5 hPa 0,0 l/m 7,8 km/h (2 Bft) NW 321 0 min 0 W/m 0,6 C 0,5 C 14,5 km/h (3 Bft)
03.02.2019 05:24 1,9 C 91 % 1010,5 hPa 0,0 l/m 8,2 km/h (2 Bft) NW 322 0 min 0 W/m 0,6 C 0,2 C 12,9 km/h (3 Bft)
03.02.2019 05:27 1,9 C 91 % 1010,6 hPa 0,0 l/m 7,3 km/h (2 Bft) NW 323 0 min 0 W/m 0,6 C 1,0 C 12,9 km/h (3 Bft)
03.02.2019 05:30 1,9 C 91 % 1010,5 hPa 0,0 l/m 6,5 km/h (2 Bft) NW 325 0 min 0 W/m 0,6 C 1,8 C 14,5 km/h (3 Bft)
03.02.2019 05:33 1,9 C 91 % 1010,6 hPa 0,0 l/m 5,9 km/h (2 Bft) NW 325 0 min 0 W/m 0,6 C 1,9 C 12,9 km/h (3 Bft)
03.02.2019 05:36 1,9 C 91 % 1010,6 hPa 0,0 l/m 7,1 km/h (2 Bft) NW 325 0 min 0 W/m 0,6 C 1,2 C 14,5 km/h (3 Bft)
03.02.2019 05:39 2,0 C 91 % 1010,6 hPa 0,0 l/m 8,0 km/h (2 Bft) N-NW 338 0 min 0 W/m 0,7 C 0,5 C 14,5 km/h (3 Bft)
03.02.2019 05:42 2,0 C 91 % 1010,6 hPa 0,0 l/m 7,4 km/h (2 Bft) N-NW 337 0 min 0 W/m 0,7 C 1,0 C 12,9 km/h (3 Bft)
03.02.2019 05:45 2,0 C 91 % 1010,6 hPa 0,0 l/m 6,4 km/h (2 Bft) N-NW 336 0 min 0 W/m 0,7 C 2,0 C 12,9 km/h (3 Bft)
03.02.2019 05:48 2,0 C 91 % 1010,7 hPa 0,0 l/m 7,7 km/h (2 Bft) NW 315 0 min 0 W/m 0,7 C 0,7 C 14,5 km/h (3 Bft)
03.02.2019 05:51 2,0 C 91 % 1010,8 hPa 0,0 l/m 7,1 km/h (2 Bft) NW 321 0 min 0 W/m 0,7 C 1,3 C 14,5 km/h (3 Bft)
03.02.2019 05:54 2,0 C 91 % 1010,8 hPa 0,0 l/m 7,6 km/h (2 Bft) NW 325 0 min 0 W/m 0,7 C 0,8 C 12,9 km/h (3 Bft)
03.02.2019 05:57 2,0 C 91 % 1010,8 hPa 0,0 l/m 6,9 km/h (2 Bft) N-NW 327 0 min 0 W/m 0,7 C 1,5 C 12,9 km/h (3 Bft)
03.02.2019 06:00 2,1 C 91 % 1010,9 hPa 0,0 l/m 7,4 km/h (2 Bft) NW 308 0 min 0 W/m 0,8 C 1,1 C 16,1 km/h (3 Bft)
03.02.2019 06:03 2,1 C 91 % 1010,9 hPa 0,0 l/m 7,3 km/h (2 Bft) NW 325 0 min 0 W/m 0,8 C 1,2 C 14,5 km/h (3 Bft)
03.02.2019 06:06 2,1 C 91 % 1011,0 hPa 0,0 l/m 5,9 km/h (2 Bft) NW 325 0 min 0 W/m 0,8 C 2,1 C 9,7 km/h (2 Bft)
03.02.2019 06:09 2,1 C 91 % 1011,1 hPa 0,0 l/m 6,4 km/h (2 Bft) NW 325 0 min 0 W/m 0,8 C 2,1 C 9,7 km/h (2 Bft)
03.02.2019 06:12 2,1 C 91 % 1011,1 hPa 0,0 l/m 5,7 km/h (2 Bft) NW 325 0 min 0 W/m 0,8 C 2,1 C 9,7 km/h (2 Bft)
03.02.2019 06:15 2,1 C 91 % 1011,1 hPa 0,0 l/m 6,3 km/h (2 Bft) NW 325 0 min 0 W/m 0,8 C 2,1 C 12,9 km/h (3 Bft)
03.02.2019 06:18 2,1 C 91 % 1011,2 hPa 0,0 l/m 6,4 km/h (2 Bft) NW 325 0 min 0 W/m 0,8 C 2,1 C 14,5 km/h (3 Bft)
03.02.2019 06:21 2,1 C 91 % 1011,3 hPa 0,0 l/m 5,2 km/h (1 Bft) NW 325 0 min 0 W/m 0,8 C 2,1 C 8,0 km/h (2 Bft)
03.02.2019 06:24 2,1 C 91 % 1011,3 hPa 0,0 l/m 5,3 km/h (1 Bft) NW 325 0 min 0 W/m 0,8 C 2,1 C 8,0 km/h (2 Bft)
03.02.2019 06:27 2,1 C 91 % 1011,3 hPa 0,0 l/m 5,5 km/h (2 Bft) NW 325 0 min 0 W/m 0,8 C 2,1 C 8,0 km/h (2 Bft)
03.02.2019 06:30 2,1 C 91 % 1011,3 hPa 0,0 l/m 5,9 km/h (2 Bft) NW 325 0 min 0 W/m 0,8 C 2,1 C 9,7 km/h (2 Bft)
03.02.2019 06:33 2,1 C 91 % 1011,3 hPa 0,0 l/m 6,2 km/h (2 Bft) NW 325 0 min 0 W/m 0,8 C 2,1 C 12,9 km/h (3 Bft)
03.02.2019 06:36 2,1 C 91 % 1011,3 hPa 0,0 l/m 6,5 km/h (2 Bft) NW 324 0 min 0 W/m 0,8 C 2,0 C 12,9 km/h (3 Bft)
03.02.2019 06:39 2,1 C 91 % 1011,2 hPa 0,0 l/m 8,6 km/h (2 Bft) N-NW 327 0 min 0 W/m 0,8 C 0,0 C 17,7 km/h (3 Bft)
03.02.2019 06:42 2,1 C 91 % 1011,3 hPa 0,0 l/m 7,9 km/h (2 Bft) N-NW 327 0 min 0 W/m 0,8 C 0,7 C 14,5 km/h (3 Bft)
03.02.2019 06:45 2,1 C 91 % 1011,3 hPa 0,0 l/m 9,4 km/h (2 Bft) N-NW 327 0 min 0 W/m 0,8 C -0,7 C 16,1 km/h (3 Bft)
03.02.2019 06:48 2,1 C 91 % 1011,5 hPa 0,0 l/m 10,2 km/h (2 Bft) NW 319 0 min 0 W/m 0,8 C -1,3 C 16,1 km/h (3 Bft)
03.02.2019 06:51 2,1 C 91 % 1011,6 hPa 0,0 l/m 7,9 km/h (2 Bft) NW 321 0 min 0 W/m 0,8 C 0,7 C 12,9 km/h (3 Bft)
03.02.2019 06:54 2,0 C 91 % 1011,6 hPa 0,0 l/m 9,2 km/h (2 Bft) NW 324 0 min 0 W/m 0,7 C -0,6 C 17,7 km/h (3 Bft)
03.02.2019 06:57 2,0 C 91 % 1011,7 hPa 0,0 l/m 8,5 km/h (2 Bft) N-NW 330 0 min 0 W/m 0,7 C 0,0 C 14,5 km/h (3 Bft)
03.02.2019 07:00 2,0 C 91 % 1011,8 hPa 0,0 l/m 10,1 km/h (2 Bft) NW 326 0 min 0 W/m 0,7 C -1,3 C 19,3 km/h (3 Bft)
03.02.2019 07:03 2,0 C 92 % 1011,9 hPa 0,0 l/m 8,8 km/h (2 Bft) NW 325 0 min 0 W/m 0,8 C -0,3 C 17,7 km/h (3 Bft)
03.02.2019 07:06 2,0 C 92 % 1012,1 hPa 0,0 l/m 9,5 km/h (2 Bft) NW 323 0 min 0 W/m 0,8 C -0,8 C 17,7 km/h (3 Bft)
03.02.2019 07:09 2,0 C 92 % 1012,1 hPa 0,0 l/m 11,3 km/h (2 Bft) NW 308 0 min 0 W/m 0,8 C -2,2 C 19,3 km/h (3 Bft)
03.02.2019 07:12 2,1 C 92 % 1012,1 hPa 0,0 l/m 11,7 km/h (2 Bft) N-NW 332 0 min 0 W/m 0,9 C -2,4 C 20,9 km/h (4 Bft)
03.02.2019 07:15 2,1 C 92 % 1012,1 hPa 0,0 l/m 11,4 km/h (2 Bft) NW 304 0 min 0 W/m 0,9 C -2,2 C 20,9 km/h (4 Bft)
03.02.2019 07:18 2,1 C 92 % 1012,1 hPa 0,0 l/m 12,2 km/h (2 Bft) N-NW 327 0 min 0 W/m 0,9 C -2,7 C 22,5 km/h (4 Bft)
03.02.2019 07:21 2,1 C 92 % 1012,1 hPa 0,0 l/m 12,2 km/h (2 Bft) NW 314 0 min 0 W/m 0,9 C -2,7 C 20,9 km/h (4 Bft)
03.02.2019 07:24 2,1 C 92 % 1012,1 hPa 0,0 l/m 11,5 km/h (2 Bft) N-NW 342 0 min 0 W/m 0,9 C -2,2 C 20,9 km/h (4 Bft)
03.02.2019 07:27 2,1 C 92 % 1012,1 hPa 0,2 l/m 14,1 km/h (3 Bft) NW 315 0 min 0 W/m 0,9 C -3,9 C 24,1 km/h (4 Bft)
03.02.2019 07:30 2,1 C 92 % 1012,2 hPa 0,0 l/m 10,6 km/h (2 Bft) N-NW 327 0 min 0 W/m 0,9 C -1,6 C 17,7 km/h (3 Bft)
03.02.2019 07:33 2,1 C 92 % 1012,2 hPa 0,0 l/m 11,5 km/h (2 Bft) N-NW 327 0 min 0 W/m 0,9 C -2,2 C 19,3 km/h (3 Bft)
03.02.2019 07:36 2,1 C 92 % 1012,2 hPa 0,0 l/m 13,0 km/h (3 Bft) NW 325 0 min 0 W/m 0,9 C -3,2 C 20,9 km/h (4 Bft)
03.02.2019 07:39 2,0 C 92 % 1012,3 hPa 0,0 l/m 11,8 km/h (2 Bft) N 360 0 min 0 W/m 0,8 C -2,6 C 20,9 km/h (4 Bft)
03.02.2019 07:42 2,0 C 92 % 1012,5 hPa 0,0 l/m 12,0 km/h (2 Bft) N-NW 346 0 min 0 W/m 0,8 C -2,7 C 20,9 km/h (4 Bft)
03.02.2019 07:45 2,0 C 92 % 1012,7 hPa 0,0 l/m 9,6 km/h (2 Bft) N-NW 348 0 min 0 W/m 0,8 C -0,9 C 19,3 km/h (3 Bft)
03.02.2019 07:48 1,9 C 92 % 1012,8 hPa 0,0 l/m 7,6 km/h (2 Bft) N-NW 329 0 min 0 W/m 0,7 C 0,7 C 14,5 km/h (3 Bft)
03.02.2019 07:51 1,9 C 92 % 1012,9 hPa 0,0 l/m 9,3 km/h (2 Bft) NW 321 0 min 0 W/m 0,7 C -0,8 C 17,7 km/h (3 Bft)
03.02.2019 07:54 1,9 C 92 % 1012,9 hPa 0,0 l/m 10,8 km/h (2 Bft) N-NW 344 0 min 0 W/m 0,7 C -2,0 C 17,7 km/h (3 Bft)
03.02.2019 07:57 1,9 C 92 % 1013,0 hPa 0,0 l/m 10,6 km/h (2 Bft) N-NW 337 0 min 0 W/m 0,7 C -1,8 C 20,9 km/h (4 Bft)
03.02.2019 08:00 1,8 C 92 % 1013,1 hPa 0,0 l/m 10,5 km/h (2 Bft) N-NW 338 0 min 0 W/m 0,6 C -1,8 C 17,7 km/h (3 Bft)
03.02.2019 08:03 1,8 C 92 % 1013,0 hPa 0,0 l/m 9,9 km/h (2 Bft) N-NW 329 0 min 0 W/m 0,6 C -1,4 C 17,7 km/h (3 Bft)
03.02.2019 08:06 1,8 C 92 % 1012,9 hPa 0,0 l/m 10,8 km/h (2 Bft) NW 322 0 min 0 W/m 0,6 C -2,1 C 16,1 km/h (3 Bft)
03.02.2019 08:09 1,8 C 92 % 1012,8 hPa 0,0 l/m 14,0 km/h (3 Bft) N-NW 336 0 min 0 W/m 0,6 C -4,2 C 19,3 km/h (3 Bft)
03.02.2019 08:12 1,8 C 92 % 1012,7 hPa 0,0 l/m 12,4 km/h (2 Bft) NW 311 0 min 0 W/m 0,6 C -3,2 C 19,3 km/h (3 Bft)
03.02.2019 08:15 1,8 C 92 % 1012,8 hPa 0,0 l/m 13,9 km/h (3 Bft) NW 305 0 min 0 W/m 0,6 C -4,2 C 22,5 km/h (4 Bft)
03.02.2019 08:18 1,8 C 92 % 1012,8 hPa 0,0 l/m 12,5 km/h (2 Bft) N-NW 335 0 min 0 W/m 0,6 C -3,3 C 19,3 km/h (3 Bft)
03.02.2019 08:21 1,8 C 92 % 1012,9 hPa 0,0 l/m 13,1 km/h (3 Bft) NW 310 0 min 0 W/m 0,6 C -3,7 C 19,3 km/h (3 Bft)
03.02.2019 08:24 1,8 C 93 % 1013,0 hPa 0,0 l/m 10,7 km/h (2 Bft) N-NW 340 0 min 5 W/m 0,8 C -2,0 C 17,7 km/h (3 Bft)
03.02.2019 08:27 1,8 C 93 % 1013,1 hPa 0,0 l/m 10,5 km/h (2 Bft) N-NW 333 0 min 5 W/m 0,8 C -1,8 C 17,7 km/h (3 Bft)
03.02.2019 08:30 1,8 C 93 % 1013,1 hPa 0,0 l/m 11,5 km/h (2 Bft) NW 323 0 min 5 W/m 0,8 C -2,6 C 19,3 km/h (3 Bft)
03.02.2019 08:33 1,8 C 93 % 1013,1 hPa 0,0 l/m 11,2 km/h (2 Bft) N 355 0 min 7 W/m 0,8 C -2,4 C 20,9 km/h (4 Bft)
03.02.2019 08:36 1,7 C 93 % 1013,1 hPa 0,0 l/m 10,0 km/h (2 Bft) N 355 0 min 7 W/m 0,7 C -1,6 C 20,9 km/h (4 Bft)
03.02.2019 08:39 1,7 C 93 % 1013,1 hPa 0,0 l/m 11,9 km/h (2 Bft) N-NW 337 0 min 9 W/m 0,7 C -3,0 C 19,3 km/h (3 Bft)
03.02.2019 08:42 1,7 C 93 % 1013,2 hPa 0,0 l/m 11,0 km/h (2 Bft) NW 317 0 min 11 W/m 0,7 C -2,3 C 19,3 km/h (3 Bft)
03.02.2019 08:45 1,7 C 93 % 1013,3 hPa 0,0 l/m 12,7 km/h (3 Bft) N-NW 331 0 min 11 W/m 0,7 C -3,5 C 20,9 km/h (4 Bft)
03.02.2019 08:48 1,7 C 93 % 1013,3 hPa 0,0 l/m 13,2 km/h (3 Bft) NW 325 0 min 12 W/m 0,7 C -3,8 C 24,1 km/h (4 Bft)
03.02.2019 08:51 1,7 C 93 % 1013,4 hPa 0,0 l/m 11,5 km/h (2 Bft) N 360 0 min 12 W/m 0,7 C -2,7 C 20,9 km/h (4 Bft)
03.02.2019 08:54 1,7 C 93 % 1013,5 hPa 0,0 l/m 12,9 km/h (3 Bft) N 355 0 min 12 W/m 0,7 C -3,6 C 20,9 km/h (4 Bft)
03.02.2019 08:57 1,7 C 93 % 1013,5 hPa 0,0 l/m 12,6 km/h (3 Bft) NW 311 0 min 14 W/m 0,7 C -3,4 C 20,9 km/h (4 Bft)
03.02.2019 09:00 1,7 C 93 % 1013,5 hPa 0,0 l/m 11,4 km/h (2 Bft) NW 326 0 min 14 W/m 0,7 C -2,6 C 17,7 km/h (3 Bft)
03.02.2019 09:03 1,7 C 93 % 1013,5 hPa 0,0 l/m 11,1 km/h (2 Bft) N 355 0 min 14 W/m 0,7 C -2,4 C 19,3 km/h (3 Bft)
03.02.2019 09:06 1,7 C 93 % 1013,5 hPa 0,0 l/m 10,2 km/h (2 Bft) NW 323 0 min 14 W/m 0,7 C -1,7 C 19,3 km/h (3 Bft)
03.02.2019 09:09 1,7 C 93 % 1013,6 hPa 0,0 l/m 10,7 km/h (2 Bft) N-NW 329 0 min 16 W/m 0,7 C -2,1 C 24,1 km/h (4 Bft)
03.02.2019 09:12 1,7 C 93 % 1013,6 hPa 0,0 l/m 12,5 km/h (2 Bft) NW 325 0 min 16 W/m 0,7 C -3,4 C 22,5 km/h (4 Bft)
03.02.2019 09:15 1,8 C 93 % 1013,6 hPa 0,0 l/m 13,9 km/h (3 Bft) N-NW 333 0 min 16 W/m 0,8 C -4,2 C 22,5 km/h (4 Bft)
03.02.2019 09:18 1,8 C 93 % 1013,7 hPa 0,0 l/m 13,7 km/h (3 Bft) N-NW 348 0 min 18 W/m 0,8 C -4,0 C 22,5 km/h (4 Bft)
03.02.2019 09:21 1,8 C 93 % 1013,8 hPa 0,0 l/m 12,2 km/h (2 Bft) NW 310 0 min 18 W/m 0,8 C -3,1 C 19,3 km/h (3 Bft)
03.02.2019 09:24 1,9 C 93 % 1013,8 hPa 0,0 l/m 10,6 km/h (2 Bft) NW 323 0 min 18 W/m 0,9 C -1,8 C 20,9 km/h (4 Bft)
03.02.2019 09:27 1,9 C 93 % 1013,8 hPa 0,0 l/m 11,7 km/h (2 Bft) N-NW 327 0 min 18 W/m 0,9 C -2,6 C 20,9 km/h (4 Bft)
03.02.2019 09:30 1,9 C 93 % 1013,9 hPa 0,0 l/m 11,1 km/h (2 Bft) N-NW 344 0 min 19 W/m 0,9 C -2,2 C 20,9 km/h (4 Bft)
03.02.2019 09:33 1,9 C 93 % 1013,9 hPa 0,0 l/m 10,7 km/h (2 Bft) NW 317 0 min 19 W/m 0,9 C -1,9 C 16,1 km/h (3 Bft)
03.02.2019 09:36 2,0 C 93 % 1014,0 hPa 0,0 l/m 12,2 km/h (2 Bft) NW 306 0 min 19 W/m 1,0 C -2,8 C 22,5 km/h (4 Bft)
03.02.2019 09:39 2,0 C 93 % 1014,1 hPa 0,0 l/m 10,9 km/h (2 Bft) N 360 0 min 19 W/m 1,0 C -1,9 C 17,7 km/h (3 Bft)
03.02.2019 09:42 2,1 C 93 % 1014,2 hPa 0,0 l/m 10,1 km/h (2 Bft) N-NW 336 0 min 21 W/m 1,1 C -1,2 C 17,7 km/h (3 Bft)
03.02.2019 09:45 2,1 C 93 % 1014,3 hPa 0,0 l/m 9,5 km/h (2 Bft) N 349 0 min 21 W/m 1,1 C -0,7 C 14,5 km/h (3 Bft)
03.02.2019 09:48 2,1 C 93 % 1014,4 hPa 0,0 l/m 10,0 km/h (2 Bft) NW 321 0 min 21 W/m 1,1 C -1,1 C 17,7 km/h (3 Bft)
03.02.2019 09:51 2,1 C 93 % 1014,3 hPa 0,0 l/m 9,9 km/h (2 Bft) N-NW 328 0 min 21 W/m 1,1 C -1,1 C 17,7 km/h (3 Bft)
03.02.2019 09:54 2,1 C 93 % 1014,4 hPa 0,0 l/m 12,1 km/h (2 Bft) NW 326 0 min 21 W/m 1,1 C -2,7 C 17,7 km/h (3 Bft)
03.02.2019 09:57 2,1 C 93 % 1014,5 hPa 0,0 l/m 10,8 km/h (2 Bft) N-NW 342 0 min 23 W/m 1,1 C -1,7 C 16,1 km/h (3 Bft)
03.02.2019 10:00 2,2 C 93 % 1014,5 hPa 0,0 l/m 11,1 km/h (2 Bft) NW 323 0 min 23 W/m 1,2 C -1,8 C 17,7 km/h (3 Bft)
03.02.2019 10:03 2,2 C 93 % 1014,5 hPa 0,0 l/m 8,1 km/h (2 Bft) N-NW 329 0 min 23 W/m 1,2 C 0,6 C 16,1 km/h (3 Bft)
03.02.2019 10:06 2,2 C 93 % 1014,5 hPa 0,0 l/m 8,4 km/h (2 Bft) NW 320 0 min 23 W/m 1,2 C 0,3 C 17,7 km/h (3 Bft)
03.02.2019 10:09 2,2 C 93 % 1014,6 hPa 0,0 l/m 10,9 km/h (2 Bft) NW 326 0 min 23 W/m 1,2 C -1,7 C 16,1 km/h (3 Bft)
03.02.2019 10:12 2,3 C 93 % 1014,7 hPa 0,0 l/m 8,8 km/h (2 Bft) NW 323 0 min 25 W/m 1,3 C 0,1 C 16,1 km/h (3 Bft)
03.02.2019 10:15 2,3 C 93 % 1014,7 hPa 0,0 l/m 8,5 km/h (2 Bft) NW 316 0 min 25 W/m 1,3 C 0,3 C 14,5 km/h (3 Bft)
03.02.2019 10:18 2,3 C 93 % 1014,7 hPa 0,0 l/m 9,0 km/h (2 Bft) NW 319 0 min 25 W/m 1,3 C -0,1 C 16,1 km/h (3 Bft)
03.02.2019 10:21 2,3 C 93 % 1014,7 hPa 0,0 l/m 9,3 km/h (2 Bft) NW 321 0 min 25 W/m 1,3 C -0,4 C 14,5 km/h (3 Bft)
03.02.2019 10:24 2,3 C 93 % 1014,6 hPa 0,0 l/m 6,9 km/h (2 Bft) NW 322 0 min 25 W/m 1,3 C 1,8 C 9,7 km/h (2 Bft)
03.02.2019 10:27 2,4 C 93 % 1014,6 hPa 0,0 l/m 7,9 km/h (2 Bft) NW 319 0 min 26 W/m 1,4 C 1,0 C 12,9 km/h (3 Bft)
03.02.2019 10:30 2,4 C 93 % 1014,7 hPa 0,0 l/m 8,6 km/h (2 Bft) NW 324 0 min 26 W/m 1,4 C 0,3 C 14,5 km/h (3 Bft)
03.02.2019 10:33 2,4 C 93 % 1014,6 hPa 0,0 l/m 6,2 km/h (2 Bft) NW 324 0 min 26 W/m 1,4 C 2,4 C 14,5 km/h (3 Bft)
03.02.2019 10:36 2,4 C 93 % 1014,8 hPa 0,0 l/m 5,5 km/h (2 Bft) N-NW 343 0 min 26 W/m 1,4 C 2,4 C 14,5 km/h (3 Bft)
03.02.2019 10:39 2,5 C 93 % 1014,7 hPa 0,0 l/m 6,7 km/h (2 Bft) NW 311 0 min 26 W/m 1,5 C 2,2 C 12,9 km/h (3 Bft)
03.02.2019 10:42 2,5 C 93 % 1014,7 hPa 0,0 l/m 5,8 km/h (2 Bft) NW 320 0 min 26 W/m 1,5 C 2,5 C 12,9 km/h (3 Bft)
03.02.2019 10:45 2,6 C 93 % 1014,8 hPa 0,0 l/m 6,8 km/h (2 Bft) NW 320 0 min 28 W/m 1,6 C 2,2 C 9,7 km/h (2 Bft)
03.02.2019 10:48 2,6 C 93 % 1014,9 hPa 0,0 l/m 5,6 km/h (2 Bft) NW 320 0 min 28 W/m 1,6 C 2,6 C 12,9 km/h (3 Bft)
03.02.2019 10:51 2,6 C 93 % 1014,9 hPa 0,0 l/m 4,0 km/h (1 Bft) NW 320 0 min 30 W/m 1,6 C 2,6 C 8,0 km/h (2 Bft)
03.02.2019 10:54 2,7 C 93 % 1014,9 hPa 0,0 l/m 5,5 km/h (2 Bft) NW 320 0 min 30 W/m 1,7 C 2,7 C 9,7 km/h (2 Bft)
03.02.2019 10:57 2,7 C 93 % 1015,0 hPa 0,0 l/m 5,9 km/h (2 Bft) NW 323 0 min 30 W/m 1,7 C 2,7 C 9,7 km/h (2 Bft)
03.02.2019 11:00 2,7 C 93 % 1015,0 hPa 0,0 l/m 5,1 km/h (1 Bft) NW 323 0 min 32 W/m 1,7 C 2,7 C 9,7 km/h (2 Bft)
03.02.2019 11:03 2,8 C 93 % 1015,0 hPa 0,0 l/m 5,3 km/h (1 Bft) NW 323 0 min 33 W/m 1,8 C 2,8 C 9,7 km/h (2 Bft)
03.02.2019 11:06 2,8 C 93 % 1015,1 hPa 0,0 l/m 5,5 km/h (2 Bft) NW 323 0 min 39 W/m 1,8 C 2,8 C 8,0 km/h (2 Bft)
03.02.2019 11:09 2,8 C 93 % 1015,2 hPa 0,0 l/m 5,3 km/h (1 Bft) NW 322 0 min 46 W/m 1,8 C 2,8 C 8,0 km/h (2 Bft)
03.02.2019 11:12 3,0 C 93 % 1015,1 hPa 0,0 l/m 5,9 km/h (2 Bft) NW 323 0 min 49 W/m 2,0 C 3,0 C 12,9 km/h (3 Bft)
03.02.2019 11:15 3,2 C 93 % 1015,1 hPa 0,0 l/m 6,1 km/h (2 Bft) NW 323 0 min 91 W/m 2,2 C 3,2 C 9,7 km/h (2 Bft)
03.02.2019 11:18 3,4 C 93 % 1015,2 hPa 0,0 l/m 3,8 km/h (1 Bft) NW 323 0 min 139 W/m 2,4 C 3,4 C 8,0 km/h (2 Bft)
03.02.2019 11:21 3,6 C 93 % 1015,2 hPa 0,0 l/m 3,2 km/h (1 Bft) NW 323 0 min 123 W/m 2,6 C 3,6 C 8,0 km/h (2 Bft)
03.02.2019 11:24 3,7 C 93 % 1015,2 hPa 0,0 l/m 1,5 km/h (1 Bft) NW 323 0 min 114 W/m 2,7 C 3,7 C 4,8 km/h (1 Bft)
03.02.2019 11:27 3,7 C 92 % 1015,2 hPa 0,0 l/m 3,4 km/h (1 Bft) NW 322 0 min 116 W/m 2,5 C 3,7 C 9,7 km/h (2 Bft)
03.02.2019 11:30 3,7 C 92 % 1015,2 hPa 0,0 l/m 3,6 km/h (1 Bft) NW 322 0 min 125 W/m 2,5 C 3,7 C 6,4 km/h (2 Bft)
03.02.2019 11:33 3,8 C 92 % 1015,2 hPa 0,0 l/m 4,6 km/h (1 Bft) NW 322 0 min 127 W/m 2,6 C 3,8 C 8,0 km/h (2 Bft)
03.02.2019 11:36 3,8 C 92 % 1015,2 hPa 0,0 l/m 4,2 km/h (1 Bft) NW 322 0 min 137 W/m 2,6 C 3,8 C 6,4 km/h (2 Bft)
03.02.2019 11:39 3,9 C 92 % 1015,2 hPa 0,0 l/m 3,6 km/h (1 Bft) NW 322 0 min 130 W/m 2,7 C 3,9 C 9,7 km/h (2 Bft)
03.02.2019 11:42 3,9 C 92 % 1015,2 hPa 0,0 l/m 4,1 km/h (1 Bft) NW 322 0 min 127 W/m 2,7 C 3,9 C 8,0 km/h (2 Bft)
03.02.2019 11:45 4,1 C 91 % 1015,2 hPa 0,0 l/m 4,5 km/h (1 Bft) NW 321 0 min 139 W/m 2,8 C 4,1 C 8,0 km/h (2 Bft)
03.02.2019 11:48 4,1 C 91 % 1015,3 hPa 0,0 l/m 3,7 km/h (1 Bft) NW 321 0 min 141 W/m 2,8 C 4,1 C 6,4 km/h (2 Bft)
03.02.2019 11:51 4,2 C 91 % 1015,3 hPa 0,0 l/m 3,5 km/h (1 Bft) NW 321 0 min 130 W/m 2,9 C 4,2 C 8,0 km/h (2 Bft)
03.02.2019 11:54 4,2 C 90 % 1015,4 hPa 0,0 l/m 5,0 km/h (1 Bft) NW 319 0 min 135 W/m 2,7 C 4,2 C 9,7 km/h (2 Bft)
03.02.2019 11:57 4,2 C 90 % 1015,4 hPa 0,0 l/m 4,1 km/h (1 Bft) W-NW 290 0 min 111 W/m 2,7 C 4,2 C 12,9 km/h (3 Bft)
03.02.2019 12:00 4,2 C 90 % 1015,5 hPa 0,0 l/m 5,4 km/h (2 Bft) W-NW 288 0 min 118 W/m 2,7 C 4,2 C 11,3 km/h (2 Bft)
03.02.2019 12:03 4,1 C 89 % 1015,6 hPa 0,0 l/m 4,2 km/h (1 Bft) W-NW 288 0 min 107 W/m 2,5 C 4,1 C 6,4 km/h (2 Bft)
03.02.2019 12:06 4,1 C 89 % 1015,5 hPa 0,0 l/m 3,2 km/h (1 Bft) W-NW 288 0 min 83 W/m 2,5 C 4,1 C 8,0 km/h (2 Bft)
03.02.2019 12:09 4,1 C 89 % 1015,6 hPa 0,0 l/m 6,4 km/h (2 Bft) W-NW 291 0 min 88 W/m 2,5 C 4,1 C 12,9 km/h (3 Bft)
03.02.2019 12:12 4,1 C 89 % 1015,6 hPa 0,0 l/m 5,4 km/h (2 Bft) W-NW 292 0 min 84 W/m 2,5 C 4,1 C 11,3 km/h (2 Bft)
03.02.2019 12:15 4,1 C 88 % 1015,7 hPa 0,0 l/m 3,8 km/h (1 Bft) W-NW 292 0 min 72 W/m 2,3 C 4,1 C 12,9 km/h (3 Bft)
03.02.2019 12:18 4,1 C 88 % 1015,7 hPa 0,0 l/m 3,1 km/h (1 Bft) W-NW 292 0 min 63 W/m 2,3 C 4,1 C 8,0 km/h (2 Bft)
03.02.2019 12:21 4,1 C 88 % 1015,7 hPa 0,0 l/m 5,0 km/h (1 Bft) W-NW 292 0 min 81 W/m 2,3 C 4,1 C 12,9 km/h (3 Bft)
03.02.2019 12:24 4,1 C 88 % 1015,7 hPa 0,0 l/m 5,8 km/h (2 Bft) W-NW 292 0 min 100 W/m 2,3 C 4,1 C 11,3 km/h (2 Bft)
03.02.2019 12:27 4,1 C 88 % 1015,8 hPa 0,0 l/m 3,7 km/h (1 Bft) W-NW 292 0 min 88 W/m 2,3 C 4,1 C 8,0 km/h (2 Bft)
03.02.2019 12:30 4,2 C 88 % 1015,8 hPa 0,0 l/m 4,4 km/h (1 Bft) W-NW 292 0 min 60 W/m 2,4 C 4,2 C 8,0 km/h (2 Bft)
03.02.2019 12:33 4,2 C 88 % 1015,9 hPa 0,0 l/m 6,7 km/h (2 Bft) NW 311 0 min 144 W/m 2,4 C 3,9 C 12,9 km/h (3 Bft)
03.02.2019 12:36 4,3 C 89 % 1016,0 hPa 0,0 l/m 5,8 km/h (2 Bft) NW 312 3 min 221 W/m 2,7 C 4,3 C 9,7 km/h (2 Bft)
03.02.2019 12:39 4,4 C 89 % 1016,0 hPa 0,0 l/m 6,2 km/h (2 Bft) NW 314 0 min 72 W/m 2,7 C 4,4 C 12,9 km/h (3 Bft)
03.02.2019 12:42 4,4 C 89 % 1016,0 hPa 0,0 l/m 4,2 km/h (1 Bft) NW 313 3 min 420 W/m 2,7 C 4,4 C 9,7 km/h (2 Bft)
03.02.2019 12:45 4,7 C 90 % 1016,0 hPa 0,0 l/m 5,1 km/h (1 Bft) NW 315 3 min 420 W/m 3,2 C 4,7 C 9,7 km/h (2 Bft)
03.02.2019 12:48 4,8 C 90 % 1016,0 hPa 0,0 l/m 5,1 km/h (1 Bft) NW 317 3 min 220 W/m 3,3 C 4,8 C 14,5 km/h (3 Bft)
03.02.2019 12:51 4,8 C 89 % 1016,0 hPa 0,0 l/m 7,2 km/h (2 Bft) NW 317 3 min 313 W/m 3,1 C 4,1 C 14,5 km/h (3 Bft)
03.02.2019 12:54 4,9 C 89 % 1016,0 hPa 0,0 l/m 8,6 km/h (2 Bft) NW 313 3 min 315 W/m 3,2 C 3,0 C 14,5 km/h (3 Bft)
03.02.2019 12:57 5,1 C 88 % 1015,9 hPa 0,0 l/m 8,3 km/h (2 Bft) NW 313 3 min 315 W/m 3,3 C 3,5 C 16,1 km/h (3 Bft)
03.02.2019 13:00 5,2 C 88 % 1015,9 hPa 0,0 l/m 6,4 km/h (2 Bft) N-NW 333 3 min 313 W/m 3,4 C 5,2 C 16,1 km/h (3 Bft)
03.02.2019 13:03 5,2 C 87 % 1015,9 hPa 0,0 l/m 8,5 km/h (2 Bft) N-NW 329 3 min 315 W/m 3,2 C 3,4 C 19,3 km/h (3 Bft)
03.02.2019 13:06 5,3 C 87 % 1016,0 hPa 0,0 l/m 8,9 km/h (2 Bft) NW 319 3 min 313 W/m 3,3 C 3,2 C 14,5 km/h (3 Bft)
03.02.2019 13:09 5,3 C 86 % 1016,0 hPa 0,0 l/m 7,9 km/h (2 Bft) N-NW 338 3 min 311 W/m 3,2 C 4,0 C 12,9 km/h (3 Bft)
03.02.2019 13:12 5,3 C 87 % 1016,1 hPa 0,0 l/m 8,8 km/h (2 Bft) NW 323 3 min 311 W/m 3,3 C 3,3 C 14,5 km/h (3 Bft)
03.02.2019 13:15 5,3 C 87 % 1016,0 hPa 0,0 l/m 5,0 km/h (1 Bft) NW 323 3 min 309 W/m 3,3 C 5,3 C 9,7 km/h (2 Bft)
03.02.2019 13:18 5,2 C 87 % 1016,0 hPa 0,0 l/m 6,5 km/h (2 Bft) N-NW 333 3 min 309 W/m 3,2 C 5,1 C 16,1 km/h (3 Bft)
03.02.2019 13:21 5,2 C 86 % 1016,0 hPa 0,0 l/m 9,8 km/h (2 Bft) NW 325 3 min 308 W/m 3,1 C 2,4 C 17,7 km/h (3 Bft)
03.02.2019 13:24 5,1 C 85 % 1016,0 hPa 0,0 l/m 10,4 km/h (2 Bft) N-NW 327 3 min 306 W/m 2,8 C 1,9 C 19,3 km/h (3 Bft)
03.02.2019 13:27 4,9 C 84 % 1016,0 hPa 0,0 l/m 10,4 km/h (2 Bft) NW 309 3 min 295 W/m 2,4 C 1,7 C 16,1 km/h (3 Bft)
03.02.2019 13:30 5,1 C 85 % 1016,0 hPa 0,0 l/m 8,7 km/h (2 Bft) NW 317 3 min 269 W/m 2,8 C 3,1 C 14,5 km/h (3 Bft)
03.02.2019 13:33 5,2 C 84 % 1016,1 hPa 0,0 l/m 9,7 km/h (2 Bft) N-NW 333 3 min 250 W/m 2,7 C 2,5 C 17,7 km/h (3 Bft)
03.02.2019 13:36 5,2 C 83 % 1016,1 hPa 0,0 l/m 8,9 km/h (2 Bft) NW 315 3 min 237 W/m 2,6 C 3,1 C 16,1 km/h (3 Bft)
03.02.2019 13:39 5,3 C 84 % 1016,2 hPa 0,0 l/m 7,3 km/h (2 Bft) NW 323 3 min 243 W/m 2,8 C 4,5 C 14,5 km/h (3 Bft)
03.02.2019 13:42 5,2 C 83 % 1016,2 hPa 0,0 l/m 7,5 km/h (2 Bft) W-NW 290 3 min 258 W/m 2,6 C 4,2 C 14,5 km/h (3 Bft)
03.02.2019 13:45 5,2 C 84 % 1016,2 hPa 0,0 l/m 5,3 km/h (1 Bft) W-NW 283 3 min 265 W/m 2,7 C 5,2 C 12,9 km/h (3 Bft)
03.02.2019 13:48 5,3 C 84 % 1016,2 hPa 0,0 l/m 7,0 km/h (2 Bft) W-NW 291 3 min 258 W/m 2,8 C 4,8 C 14,5 km/h (3 Bft)
03.02.2019 13:51 5,3 C 84 % 1016,3 hPa 0,0 l/m 4,0 km/h (1 Bft) W-NW 290 3 min 246 W/m 2,8 C 5,3 C 6,4 km/h (2 Bft)
03.02.2019 13:54 5,2 C 84 % 1016,4 hPa 0,0 l/m 4,7 km/h (1 Bft) W-NW 291 3 min 225 W/m 2,7 C 5,2 C 14,5 km/h (3 Bft)
03.02.2019 13:57 5,2 C 84 % 1016,4 hPa 0,0 l/m 6,4 km/h (2 Bft) W-NW 293 3 min 206 W/m 2,7 C 5,2 C 12,9 km/h (3 Bft)
03.02.2019 14:00 5,3 C 84 % 1016,4 hPa 0,0 l/m 5,9 km/h (2 Bft) W-NW 292 3 min 183 W/m 2,8 C 5,3 C 14,5 km/h (3 Bft)
03.02.2019 14:03 5,3 C 84 % 1016,5 hPa 0,0 l/m 4,7 km/h (1 Bft) W-NW 292 3 min 174 W/m 2,8 C 5,3 C 12,9 km/h (3 Bft)
03.02.2019 14:06 5,4 C 84 % 1016,5 hPa 0,0 l/m 4,2 km/h (1 Bft) W-NW 292 3 min 188 W/m 2,9 C 5,4 C 11,3 km/h (2 Bft)
03.02.2019 14:09 5,4 C 83 % 1016,5 hPa 0,0 l/m 4,8 km/h (1 Bft) W-NW 292 3 min 207 W/m 2,7 C 5,4 C 8,0 km/h (2 Bft)
03.02.2019 14:12 5,4 C 83 % 1016,5 hPa 0,0 l/m 5,1 km/h (1 Bft) W-NW 291 3 min 230 W/m 2,7 C 5,4 C 12,9 km/h (3 Bft)
03.02.2019 14:15 5,4 C 83 % 1016,6 hPa 0,0 l/m 5,3 km/h (1 Bft) W-NW 292 3 min 232 W/m 2,7 C 5,4 C 11,3 km/h (2 Bft)
03.02.2019 14:18 5,3 C 83 % 1016,7 hPa 0,0 l/m 5,6 km/h (2 Bft) W-NW 290 3 min 239 W/m 2,7 C 5,3 C 14,5 km/h (3 Bft)
03.02.2019 14:21 5,3 C 83 % 1016,8 hPa 0,0 l/m 5,7 km/h (2 Bft) W-NW 297 3 min 246 W/m 2,7 C 5,3 C 12,9 km/h (3 Bft)
03.02.2019 14:24 5,3 C 83 % 1016,9 hPa 0,0 l/m 7,0 km/h (2 Bft) NW 320 3 min 248 W/m 2,7 C 4,8 C 14,5 km/h (3 Bft)
03.02.2019 14:27 5,2 C 83 % 1016,9 hPa 0,0 l/m 4,0 km/h (1 Bft) NW 319 3 min 246 W/m 2,6 C 5,2 C 8,0 km/h (2 Bft)
03.02.2019 14:30 5,2 C 84 % 1016,9 hPa 0,0 l/m 6,6 km/h (2 Bft) N-NW 331 3 min 243 W/m 2,7 C 5,0 C 12,9 km/h (3 Bft)
03.02.2019 14:33 5,3 C 83 % 1017,0 hPa 0,0 l/m 4,3 km/h (1 Bft) W-SW 252 3 min 239 W/m 2,7 C 5,3 C 12,9 km/h (3 Bft)
03.02.2019 14:36 5,2 C 83 % 1017,0 hPa 0,0 l/m 5,3 km/h (1 Bft) W-NW 295 3 min 234 W/m 2,6 C 5,2 C 16,1 km/h (3 Bft)
03.02.2019 14:39 5,2 C 83 % 1017,1 hPa 0,0 l/m 6,2 km/h (2 Bft) W-NW 296 3 min 220 W/m 2,6 C 5,2 C 14,5 km/h (3 Bft)
03.02.2019 14:42 5,2 C 83 % 1017,1 hPa 0,0 l/m 5,6 km/h (2 Bft) W-NW 296 3 min 167 W/m 2,6 C 5,2 C 8,0 km/h (2 Bft)
03.02.2019 14:45 5,1 C 84 % 1017,1 hPa 0,0 l/m 6,1 km/h (2 Bft) N-NW 338 3 min 206 W/m 2,6 C 5,1 C 14,5 km/h (3 Bft)
03.02.2019 14:48 5,0 C 83 % 1017,1 hPa 0,0 l/m 5,1 km/h (1 Bft) NW 306 3 min 183 W/m 2,4 C 5,0 C 9,7 km/h (2 Bft)
03.02.2019 14:51 4,9 C 84 % 1017,1 hPa 0,0 l/m 3,9 km/h (1 Bft) NW 308 3 min 155 W/m 2,4 C 4,9 C 12,9 km/h (3 Bft)
03.02.2019 14:54 4,9 C 84 % 1017,2 hPa 0,0 l/m 2,5 km/h (1 Bft) NW 307 3 min 139 W/m 2,4 C 4,9 C 8,0 km/h (2 Bft)
03.02.2019 14:57 4,9 C 85 % 1017,2 hPa 0,0 l/m 4,4 km/h (1 Bft) NW 308 0 min 91 W/m 2,6 C 4,9 C 8,0 km/h (2 Bft)
03.02.2019 15:00 4,8 C 85 % 1017,3 hPa 0,0 l/m 3,4 km/h (1 Bft) NW 308 3 min 163 W/m 2,5 C 4,8 C 8,0 km/h (2 Bft)
03.02.2019 15:03 4,8 C 85 % 1017,4 hPa 0,0 l/m 3,5 km/h (1 Bft) NW 308 3 min 130 W/m 2,5 C 4,8 C 6,4 km/h (2 Bft)
03.02.2019 15:06 4,8 C 85 % 1017,4 hPa 0,0 l/m 2,9 km/h (1 Bft) NW 308 0 min 107 W/m 2,5 C 4,8 C 6,4 km/h (2 Bft)
03.02.2019 15:09 4,8 C 85 % 1017,4 hPa 0,0 l/m 3,6 km/h (1 Bft) NW 308 0 min 105 W/m 2,5 C 4,8 C 8,0 km/h (2 Bft)
03.02.2019 15:12 4,8 C 85 % 1017,5 hPa 0,0 l/m 2,8 km/h (1 Bft) NW 308 0 min 105 W/m 2,5 C 4,8 C 4,8 km/h (1 Bft)
03.02.2019 15:15 4,9 C 85 % 1017,5 hPa 0,0 l/m 3,8 km/h (1 Bft) NW 307 3 min 121 W/m 2,6 C 4,9 C 8,0 km/h (2 Bft)
03.02.2019 15:18 4,9 C 85 % 1017,5 hPa 0,0 l/m 3,6 km/h (1 Bft) NW 307 3 min 142 W/m 2,6 C 4,9 C 6,4 km/h (2 Bft)
03.02.2019 15:21 5,0 C 85 % 1017,5 hPa 0,0 l/m 4,9 km/h (1 Bft) NW 307 3 min 139 W/m 2,7 C 5,0 C 11,3 km/h (2 Bft)
03.02.2019 15:24 5,1 C 85 % 1017,5 hPa 0,0 l/m 3,7 km/h (1 Bft) NW 307 0 min 65 W/m 2,8 C 5,1 C 8,0 km/h (2 Bft)
03.02.2019 15:27 5,0 C 84 % 1017,5 hPa 0,0 l/m 4,2 km/h (1 Bft) NW 306 0 min 49 W/m 2,5 C 5,0 C 11,3 km/h (2 Bft)
03.02.2019 15:30 4,9 C 85 % 1017,6 hPa 0,0 l/m 3,7 km/h (1 Bft) NW 306 0 min 42 W/m 2,6 C 4,9 C 6,4 km/h (2 Bft)
03.02.2019 15:33 4,8 C 85 % 1017,6 hPa 0,0 l/m 2,6 km/h (1 Bft) NW 307 0 min 30 W/m 2,5 C 4,8 C 8,0 km/h (2 Bft)
03.02.2019 15:36 4,7 C 85 % 1017,7 hPa 0,0 l/m 3,7 km/h (1 Bft) NW 306 0 min 83 W/m 2,4 C 4,7 C 8,0 km/h (2 Bft)
03.02.2019 15:39 4,6 C 86 % 1017,7 hPa 0,0 l/m 4,9 km/h (1 Bft) NW 306 0 min 70 W/m 2,5 C 4,6 C 8,0 km/h (2 Bft)
03.02.2019 15:42 4,6 C 86 % 1017,6 hPa 0,0 l/m 4,6 km/h (1 Bft) NW 306 0 min 63 W/m 2,5 C 4,6 C 8,0 km/h (2 Bft)
03.02.2019 15:45 4,6 C 86 % 1017,7 hPa 0,0 l/m 4,4 km/h (1 Bft) NW 306 0 min 32 W/m 2,5 C 4,6 C 8,0 km/h (2 Bft)
03.02.2019 15:48 4,6 C 87 % 1017,7 hPa 0,0 l/m 3,8 km/h (1 Bft) NW 306 0 min 32 W/m 2,6 C 4,6 C 8,0 km/h (2 Bft)
03.02.2019 15:51 4,6 C 87 % 1017,7 hPa 0,0 l/m 3,9 km/h (1 Bft) NW 306 0 min 44 W/m 2,6 C 4,6 C 8,0 km/h (2 Bft)
03.02.2019 15:54 4,6 C 87 % 1017,8 hPa 0,0 l/m 5,3 km/h (1 Bft) NW 306 0 min 49 W/m 2,6 C 4,6 C 11,3 km/h (2 Bft)
03.02.2019 15:57 4,6 C 87 % 1017,9 hPa 0,0 l/m 4,3 km/h (1 Bft) NW 306 0 min 54 W/m 2,6 C 4,6 C 8,0 km/h (2 Bft)
03.02.2019 16:00 4,6 C 87 % 1017,9 hPa 0,0 l/m 3,8 km/h (1 Bft) NW 306 0 min 21 W/m 2,6 C 4,6 C 11,3 km/h (2 Bft)
03.02.2019 16:03 4,5 C 87 % 1017,9 hPa 0,0 l/m 5,4 km/h (2 Bft) W 273 0 min 18 W/m 2,5 C 4,5 C 14,5 km/h (3 Bft)
03.02.2019 16:06 4,4 C 87 % 1018,0 hPa 0,0 l/m 5,4 km/h (2 Bft) W 273 0 min 21 W/m 2,4 C 4,4 C 11,3 km/h (2 Bft)
03.02.2019 16:09 4,4 C 87 % 1018,0 hPa 0,0 l/m 4,2 km/h (1 Bft) W 273 0 min 23 W/m 2,4 C 4,4 C 9,7 km/h (2 Bft)
03.02.2019 16:12 4,3 C 86 % 1018,0 hPa 0,0 l/m 4,1 km/h (1 Bft) W 273 0 min 16 W/m 2,2 C 4,3 C 11,3 km/h (2 Bft)
03.02.2019 16:15 4,2 C 87 % 1018,0 hPa 0,0 l/m 5,2 km/h (1 Bft) W 273 0 min 14 W/m 2,2 C 4,2 C 11,3 km/h (2 Bft)
03.02.2019 16:18 4,2 C 87 % 1018,1 hPa 0,0 l/m 5,7 km/h (2 Bft) W 273 0 min 12 W/m 2,2 C 4,2 C 9,7 km/h (2 Bft)
03.02.2019 16:21 4,1 C 87 % 1018,0 hPa 0,0 l/m 5,7 km/h (2 Bft) W 273 0 min 11 W/m 2,1 C 4,1 C 12,9 km/h (3 Bft)
03.02.2019 16:24 4,0 C 87 % 1018,0 hPa 0,0 l/m 5,0 km/h (1 Bft) W 273 0 min 11 W/m 2,0 C 4,0 C 9,7 km/h (2 Bft)
03.02.2019 16:27 3,9 C 87 % 1018,1 hPa 0,0 l/m 2,9 km/h (1 Bft) W 273 0 min 12 W/m 1,9 C 3,9 C 6,4 km/h (2 Bft)
03.02.2019 16:30 3,8 C 87 % 1018,1 hPa 0,0 l/m 3,2 km/h (1 Bft) W 273 0 min 12 W/m 1,8 C 3,8 C 9,7 km/h (2 Bft)
03.02.2019 16:33 3,8 C 87 % 1018,1 hPa 0,0 l/m 5,8 km/h (2 Bft) W 273 0 min 14 W/m 1,8 C 3,8 C 12,9 km/h (3 Bft)
03.02.2019 16:36 3,8 C 87 % 1018,2 hPa 0,0 l/m 7,3 km/h (2 Bft) W 273 0 min 19 W/m 1,8 C 3,0 C 11,3 km/h (2 Bft)
03.02.2019 16:39 3,7 C 88 % 1018,3 hPa 0,0 l/m 8,4 km/h (2 Bft) W-SW 246 0 min 23 W/m 1,9 C 1,9 C 14,5 km/h (3 Bft)
03.02.2019 16:42 3,7 C 88 % 1018,2 hPa 0,0 l/m 5,9 km/h (2 Bft) W-SW 248 0 min 23 W/m 1,9 C 3,7 C 12,9 km/h (3 Bft)
03.02.2019 16:45 3,7 C 88 % 1018,2 hPa 0,0 l/m 6,5 km/h (2 Bft) W 264 0 min 14 W/m 1,9 C 3,6 C 14,5 km/h (3 Bft)
03.02.2019 16:48 3,6 C 88 % 1018,3 hPa 0,0 l/m 6,4 km/h (2 Bft) W 265 0 min 11 W/m 1,8 C 3,6 C 14,5 km/h (3 Bft)
03.02.2019 16:51 3,6 C 88 % 1018,3 hPa 0,0 l/m 6,3 km/h (2 Bft) W 265 0 min 11 W/m 1,8 C 3,6 C 11,3 km/h (2 Bft)
03.02.2019 16:54 3,6 C 88 % 1018,3 hPa 0,0 l/m 6,4 km/h (2 Bft) W 267 3 min 11 W/m 1,8 C 3,6 C 14,5 km/h (3 Bft)
03.02.2019 16:57 3,6 C 89 % 1018,4 hPa 0,0 l/m 5,3 km/h (1 Bft) W 267 0 min 9 W/m 2,0 C 3,6 C 11,3 km/h (2 Bft)
03.02.2019 17:00 3,6 C 89 % 1018,5 hPa 0,0 l/m 7,1 km/h (2 Bft) W 266 0 min 11 W/m 2,0 C 3,0 C 12,9 km/h (3 Bft)
03.02.2019 17:03 3,6 C 89 % 1018,5 hPa 0,0 l/m 6,7 km/h (2 Bft) W 266 0 min 7 W/m 2,0 C 3,3 C 12,9 km/h (3 Bft)
03.02.2019 17:06 3,6 C 89 % 1018,5 hPa 0,0 l/m 6,8 km/h (2 Bft) W 267 0 min 5 W/m 2,0 C 3,2 C 16,1 km/h (3 Bft)
03.02.2019 17:09 3,6 C 89 % 1018,5 hPa 0,0 l/m 8,4 km/h (2 Bft) W 270 0 min 0 W/m 2,0 C 1,8 C 14,5 km/h (3 Bft)
03.02.2019 17:12 3,6 C 89 % 1018,5 hPa 0,0 l/m 7,0 km/h (2 Bft) W 269 0 min 0 W/m 2,0 C 3,0 C 12,9 km/h (3 Bft)
03.02.2019 17:15 3,6 C 88 % 1018,5 hPa 0,0 l/m 8,0 km/h (2 Bft) W 269 0 min 0 W/m 1,8 C 2,1 C 12,9 km/h (3 Bft)
03.02.2019 17:18 3,5 C 88 % 1018,6 hPa 0,0 l/m 5,7 km/h (2 Bft) W 269 0 min 0 W/m 1,7 C 3,5 C 9,7 km/h (2 Bft)
03.02.2019 17:21 3,4 C 88 % 1018,6 hPa 0,0 l/m 5,6 km/h (2 Bft) W 269 0 min 0 W/m 1,6 C 3,4 C 12,9 km/h (3 Bft)
03.02.2019 17:24 3,4 C 88 % 1018,7 hPa 0,0 l/m 7,6 km/h (2 Bft) W 269 0 min 0 W/m 1,6 C 2,3 C 12,9 km/h (3 Bft)
03.02.2019 17:27 3,4 C 88 % 1018,6 hPa 0,0 l/m 6,1 km/h (2 Bft) W 269 0 min 0 W/m 1,6 C 3,4 C 9,7 km/h (2 Bft)
03.02.2019 17:30 3,4 C 88 % 1018,7 hPa 0,0 l/m 5,3 km/h (1 Bft) W 269 0 min 0 W/m 1,6 C 3,4 C 11,3 km/h (2 Bft)
03.02.2019 17:33 3,3 C 88 % 1018,7 hPa 0,0 l/m 4,4 km/h (1 Bft) W 269 0 min 0 W/m 1,5 C 3,3 C 9,7 km/h (2 Bft)
03.02.2019 17:36 3,3 C 88 % 1018,8 hPa 0,0 l/m 3,7 km/h (1 Bft) W 269 0 min 0 W/m 1,5 C 3,3 C 9,7 km/h (2 Bft)
03.02.2019 17:39 3,3 C 88 % 1018,7 hPa 0,0 l/m 4,0 km/h (1 Bft) W 269 0 min 0 W/m 1,5 C 3,3 C 9,7 km/h (2 Bft)
03.02.2019 17:42 3,3 C 88 % 1018,8 hPa 0,0 l/m 4,0 km/h (1 Bft) W 269 0 min 0 W/m 1,5 C 3,3 C 6,4 km/h (2 Bft)
03.02.2019 17:45 3,3 C 88 % 1018,8 hPa 0,0 l/m 4,2 km/h (1 Bft) W 269 0 min 0 W/m 1,5 C 3,3 C 9,7 km/h (2 Bft)
03.02.2019 17:48 3,2 C 88 % 1018,8 hPa 0,0 l/m 5,0 km/h (1 Bft) W 269 0 min 0 W/m 1,4 C 3,2 C 11,3 km/h (2 Bft)
03.02.2019 17:51 3,2 C 88 % 1018,7 hPa 0,0 l/m 5,1 km/h (1 Bft) W 269 0 min 0 W/m 1,4 C 3,2 C 9,7 km/h (2 Bft)
03.02.2019 17:54 3,2 C 88 % 1018,8 hPa 0,0 l/m 4,3 km/h (1 Bft) W 269 0 min 0 W/m 1,4 C 3,2 C 9,7 km/h (2 Bft)
03.02.2019 17:57 3,1 C 89 % 1018,8 hPa 0,0 l/m 6,0 km/h (2 Bft) W 269 0 min 0 W/m 1,5 C 3,1 C 14,5 km/h (3 Bft)
03.02.2019 18:00 3,1 C 88 % 1018,8 hPa 0,0 l/m 6,4 km/h (2 Bft) W 271 0 min 0 W/m 1,3 C 3,1 C 14,5 km/h (3 Bft)
03.02.2019 18:03 3,0 C 89 % 1018,8 hPa 0,0 l/m 7,7 km/h (2 Bft) W 270 0 min 0 W/m 1,4 C 1,8 C 12,9 km/h (3 Bft)
03.02.2019 18:06 3,0 C 89 % 1018,9 hPa 0,0 l/m 8,0 km/h (2 Bft) W 270 0 min 0 W/m 1,4 C 1,5 C 14,5 km/h (3 Bft)
03.02.2019 18:09 3,0 C 89 % 1018,9 hPa 0,0 l/m 7,6 km/h (2 Bft) W 266 0 min 0 W/m 1,4 C 1,9 C 12,9 km/h (3 Bft)
03.02.2019 18:12 3,0 C 89 % 1018,9 hPa 0,0 l/m 7,4 km/h (2 Bft) W 266 0 min 0 W/m 1,4 C 2,1 C 12,9 km/h (3 Bft)
03.02.2019 18:15 3,1 C 89 % 1018,9 hPa 0,0 l/m 6,7 km/h (2 Bft) W 266 0 min 0 W/m 1,5 C 2,8 C 12,9 km/h (3 Bft)
03.02.2019 18:18 3,1 C 89 % 1019,0 hPa 0,0 l/m 9,1 km/h (2 Bft) W 264 0 min 0 W/m 1,5 C 0,7 C 14,5 km/h (3 Bft)
03.02.2019 18:21 3,1 C 90 % 1019,1 hPa 0,0 l/m 6,4 km/h (2 Bft) W 263 0 min 0 W/m 1,6 C 3,1 C 12,9 km/h (3 Bft)
03.02.2019 18:24 3,1 C 90 % 1019,1 hPa 0,0 l/m 9,4 km/h (2 Bft) W 263 0 min 0 W/m 1,6 C 0,4 C 16,1 km/h (3 Bft)
03.02.2019 18:27 3,1 C 90 % 1019,1 hPa 0,0 l/m 8,3 km/h (2 Bft) W 260 0 min 0 W/m 1,6 C 1,3 C 12,9 km/h (3 Bft)
03.02.2019 18:30 3,1 C 90 % 1019,2 hPa 0,0 l/m 7,9 km/h (2 Bft) W 259 0 min 0 W/m 1,6 C 1,7 C 11,3 km/h (2 Bft)
03.02.2019 18:33 3,1 C 90 % 1019,3 hPa 0,0 l/m 7,7 km/h (2 Bft) W 259 0 min 0 W/m 1,6 C 1,9 C 11,3 km/h (2 Bft)
03.02.2019 18:36 3,1 C 90 % 1019,3 hPa 0,0 l/m 9,4 km/h (2 Bft) W 259 0 min 0 W/m 1,6 C 0,4 C 14,5 km/h (3 Bft)
03.02.2019 18:39 3,1 C 90 % 1019,3 hPa 0,0 l/m 7,0 km/h (2 Bft) W 261 0 min 0 W/m 1,6 C 2,5 C 16,1 km/h (3 Bft)
03.02.2019 18:42 3,1 C 90 % 1019,3 hPa 0,0 l/m 7,2 km/h (2 Bft) W 260 0 min 0 W/m 1,6 C 2,3 C 12,9 km/h (3 Bft)
03.02.2019 18:45 3,1 C 90 % 1019,3 hPa 0,0 l/m 6,4 km/h (2 Bft) W 260 0 min 0 W/m 1,6 C 3,1 C 12,9 km/h (3 Bft)
03.02.2019 18:48 3,1 C 90 % 1019,4 hPa 0,0 l/m 8,4 km/h (2 Bft) W 260 0 min 0 W/m 1,6 C 1,3 C 14,5 km/h (3 Bft)
03.02.2019 18:51 3,1 C 90 % 1019,4 hPa 0,0 l/m 6,6 km/h (2 Bft) W 261 0 min 0 W/m 1,6 C 2,9 C 12,9 km/h (3 Bft)
03.02.2019 18:54 3,1 C 91 % 1019,4 hPa 0,0 l/m 6,2 km/h (2 Bft) W 261 0 min 0 W/m 1,8 C 3,1 C 9,7 km/h (2 Bft)
03.02.2019 18:57 3,0 C 90 % 1019,5 hPa 0,0 l/m 6,3 km/h (2 Bft) W 260 0 min 0 W/m 1,5 C 3,0 C 11,3 km/h (2 Bft)
03.02.2019 19:00 3,0 C 90 % 1019,5 hPa 0,0 l/m 6,5 km/h (2 Bft) W 260 0 min 0 W/m 1,5 C 2,9 C 11,3 km/h (2 Bft)
03.02.2019 19:03 2,9 C 90 % 1019,5 hPa 0,0 l/m 5,3 km/h (1 Bft) W 259 0 min 0 W/m 1,4 C 2,9 C 11,3 km/h (2 Bft)
03.02.2019 19:06 2,9 C 90 % 1019,5 hPa 0,0 l/m 6,4 km/h (2 Bft) W 259 0 min 0 W/m 1,4 C 2,9 C 11,3 km/h (2 Bft)
03.02.2019 19:09 2,9 C 90 % 1019,5 hPa 0,0 l/m 5,8 km/h (2 Bft) W 260 0 min 0 W/m 1,4 C 2,9 C 11,3 km/h (2 Bft)
03.02.2019 19:12 2,9 C 91 % 1019,5 hPa 0,0 l/m 6,6 km/h (2 Bft) W 259 0 min 0 W/m 1,6 C 2,7 C 12,9 km/h (3 Bft)
03.02.2019 19:15 2,9 C 91 % 1019,5 hPa 0,0 l/m 7,2 km/h (2 Bft) W 260 0 min 0 W/m 1,6 C 2,1 C 12,9 km/h (3 Bft)
03.02.2019 19:18 2,9 C 91 % 1019,5 hPa 0,0 l/m 8,0 km/h (2 Bft) W 261 0 min 0 W/m 1,6 C 1,4 C 12,9 km/h (3 Bft)
03.02.2019 19:21 2,9 C 91 % 1019,6 hPa 0,0 l/m 7,1 km/h (2 Bft) W 262 0 min 0 W/m 1,6 C 2,2 C 12,9 km/h (3 Bft)
03.02.2019 19:24 2,9 C 91 % 1019,6 hPa 0,0 l/m 8,9 km/h (2 Bft) W 261 0 min 0 W/m 1,6 C 0,6 C 16,1 km/h (3 Bft)
03.02.2019 19:27 2,9 C 91 % 1019,7 hPa 0,0 l/m 8,4 km/h (2 Bft) W 273 0 min 0 W/m 1,6 C 1,0 C 16,1 km/h (3 Bft)
03.02.2019 19:30 2,9 C 91 % 1019,7 hPa 0,0 l/m 9,2 km/h (2 Bft) W-SW 256 0 min 0 W/m 1,6 C 0,4 C 17,7 km/h (3 Bft)
03.02.2019 19:33 2,8 C 91 % 1019,7 hPa 0,0 l/m 9,6 km/h (2 Bft) W-SW 247 0 min 0 W/m 1,5 C -0,0 C 19,3 km/h (3 Bft)
03.02.2019 19:36 2,8 C 91 % 1019,7 hPa 0,0 l/m 8,6 km/h (2 Bft) W-SW 248 0 min 0 W/m 1,5 C 0,8 C 12,9 km/h (3 Bft)
03.02.2019 19:39 2,8 C 91 % 1019,7 hPa 0,0 l/m 8,0 km/h (2 Bft) W-SW 248 0 min 0 W/m 1,5 C 1,3 C 12,9 km/h (3 Bft)
03.02.2019 19:42 2,7 C 91 % 1019,7 hPa 0,0 l/m 6,0 km/h (2 Bft) W-SW 249 0 min 0 W/m 1,4 C 2,7 C 11,3 km/h (2 Bft)
03.02.2019 19:45 2,7 C 91 % 1019,7 hPa 0,0 l/m 6,9 km/h (2 Bft) W-SW 250 0 min 0 W/m 1,4 C 2,2 C 11,3 km/h (2 Bft)
03.02.2019 19:48 2,7 C 91 % 1019,8 hPa 0,0 l/m 7,1 km/h (2 Bft) W-SW 252 0 min 0 W/m 1,4 C 2,0 C 14,5 km/h (3 Bft)
03.02.2019 19:51 2,6 C 90 % 1019,8 hPa 0,0 l/m 5,5 km/h (2 Bft) W-SW 252 0 min 0 W/m 1,1 C 2,6 C 11,3 km/h (2 Bft)
03.02.2019 19:54 2,6 C 90 % 1019,8 hPa 0,0 l/m 6,3 km/h (2 Bft) W-SW 252 0 min 0 W/m 1,1 C 2,6 C 11,3 km/h (2 Bft)
03.02.2019 19:57 2,6 C 90 % 1019,8 hPa 0,0 l/m 6,3 km/h (2 Bft) W-SW 252 0 min 0 W/m 1,1 C 2,6 C 12,9 km/h (3 Bft)
03.02.2019 20:00 2,6 C 90 % 1019,9 hPa 0,0 l/m 7,0 km/h (2 Bft) W-SW 252 0 min 0 W/m 1,1 C 2,0 C 14,5 km/h (3 Bft)
03.02.2019 20:03 2,5 C 90 % 1019,9 hPa 0,0 l/m 6,2 km/h (2 Bft) W-SW 253 0 min 0 W/m 1,0 C 2,5 C 12,9 km/h (3 Bft)
03.02.2019 20:06 2,5 C 90 % 1019,9 hPa 0,0 l/m 7,3 km/h (2 Bft) W-SW 255 0 min 0 W/m 1,0 C 1,6 C 12,9 km/h (3 Bft)
03.02.2019 20:09 2,5 C 90 % 1019,9 hPa 0,0 l/m 8,9 km/h (2 Bft) W 277 0 min 0 W/m 1,0 C 0,2 C 16,1 km/h (3 Bft)
03.02.2019 20:12 2,6 C 90 % 1019,9 hPa 0,0 l/m 10,4 km/h (2 Bft) W 271 0 min 0 W/m 1,1 C -0,9 C 16,1 km/h (3 Bft)
03.02.2019 20:15 2,6 C 90 % 1020,0 hPa 0,0 l/m 7,4 km/h (2 Bft) W 271 0 min 0 W/m 1,1 C 1,6 C 14,5 km/h (3 Bft)
03.02.2019 20:18 2,6 C 90 % 1020,0 hPa 0,0 l/m 8,3 km/h (2 Bft) W-SW 258 0 min 0 W/m 1,1 C 0,8 C 14,5 km/h (3 Bft)
03.02.2019 20:21 2,6 C 90 % 1020,0 hPa 0,0 l/m 6,4 km/h (2 Bft) W-SW 258 0 min 0 W/m 1,1 C 2,6 C 11,3 km/h (2 Bft)
03.02.2019 20:24 2,5 C 90 % 1020,0 hPa 0,0 l/m 6,6 km/h (2 Bft) W 259 0 min 0 W/m 1,0 C 2,3 C 14,5 km/h (3 Bft)
03.02.2019 20:27 2,5 C 90 % 1020,1 hPa 0,0 l/m 6,9 km/h (2 Bft) W 259 0 min 0 W/m 1,0 C 2,0 C 12,9 km/h (3 Bft)
03.02.2019 20:30 2,5 C 90 % 1020,1 hPa 0,0 l/m 4,6 km/h (1 Bft) W-SW 258 0 min 0 W/m 1,0 C 2,5 C 9,7 km/h (2 Bft)
03.02.2019 20:33 2,4 C 89 % 1020,2 hPa 0,0 l/m 7,1 km/h (2 Bft) W-SW 246 0 min 0 W/m 0,8 C 1,7 C 12,9 km/h (3 Bft)
03.02.2019 20:36 2,4 C 89 % 1020,3 hPa 0,0 l/m 6,2 km/h (2 Bft) W-SW 246 0 min 0 W/m 0,8 C 2,4 C 12,9 km/h (3 Bft)
03.02.2019 20:39 2,3 C 89 % 1020,3 hPa 0,0 l/m 5,6 km/h (2 Bft) W-SW 246 0 min 0 W/m 0,7 C 2,3 C 11,3 km/h (2 Bft)
03.02.2019 20:42 2,3 C 89 % 1020,3 hPa 0,0 l/m 5,5 km/h (2 Bft) W-SW 246 0 min 0 W/m 0,7 C 2,3 C 11,3 km/h (2 Bft)
03.02.2019 20:45 2,2 C 89 % 1020,3 hPa 0,0 l/m 5,9 km/h (2 Bft) W-SW 246 0 min 0 W/m 0,6 C 2,2 C 11,3 km/h (2 Bft)
03.02.2019 20:48 2,2 C 89 % 1020,4 hPa 0,0 l/m 6,9 km/h (2 Bft) W-SW 246 0 min 0 W/m 0,6 C 1,7 C 12,9 km/h (3 Bft)
03.02.2019 20:51 2,2 C 89 % 1020,4 hPa 0,0 l/m 5,6 km/h (2 Bft) W-SW 245 0 min 0 W/m 0,6 C 2,2 C 11,3 km/h (2 Bft)
03.02.2019 20:54 2,2 C 90 % 1020,4 hPa 0,0 l/m 6,5 km/h (2 Bft) W-SW 246 0 min 0 W/m 0,7 C 2,1 C 12,9 km/h (3 Bft)
03.02.2019 20:57 2,2 C 90 % 1020,4 hPa 0,0 l/m 6,7 km/h (2 Bft) W-SW 245 0 min 0 W/m 0,7 C 1,9 C 14,5 km/h (3 Bft)
03.02.2019 21:00 2,2 C 90 % 1020,4 hPa 0,0 l/m 6,6 km/h (2 Bft) W-SW 246 0 min 0 W/m 0,7 C 2,0 C 12,9 km/h (3 Bft)
03.02.2019 21:03 2,2 C 90 % 1020,4 hPa 0,0 l/m 6,7 km/h (2 Bft) W-SW 246 0 min 0 W/m 0,7 C 1,9 C 11,3 km/h (2 Bft)
03.02.2019 21:06 2,2 C 90 % 1020,5 hPa 0,0 l/m 6,8 km/h (2 Bft) W-SW 245 0 min 0 W/m 0,7 C 1,8 C 12,9 km/h (3 Bft)
03.02.2019 21:09 2,2 C 90 % 1020,5 hPa 0,0 l/m 4,7 km/h (1 Bft) W-SW 245 0 min 0 W/m 0,7 C 2,2 C 8,0 km/h (2 Bft)
03.02.2019 21:12 2,2 C 90 % 1020,5 hPa 0,0 l/m 5,6 km/h (2 Bft) W-SW 245 0 min 0 W/m 0,7 C 2,2 C 12,9 km/h (3 Bft)
03.02.2019 21:15 2,2 C 91 % 1020,6 hPa 0,0 l/m 6,6 km/h (2 Bft) W-SW 246 0 min 0 W/m 0,9 C 2,0 C 16,1 km/h (3 Bft)
03.02.2019 21:18 2,2 C 91 % 1020,6 hPa 0,0 l/m 5,5 km/h (2 Bft) W-SW 246 0 min 0 W/m 0,9 C 2,2 C 11,3 km/h (2 Bft)
03.02.2019 21:21 2,2 C 91 % 1020,7 hPa 0,0 l/m 6,8 km/h (2 Bft) W-SW 246 0 min 0 W/m 0,9 C 1,8 C 11,3 km/h (2 Bft)
03.02.2019 21:24 2,2 C 91 % 1020,7 hPa 0,0 l/m 7,4 km/h (2 Bft) W-SW 249 0 min 0 W/m 0,9 C 1,2 C 12,9 km/h (3 Bft)
03.02.2019 21:27 2,2 C 91 % 1020,7 hPa 0,0 l/m 7,7 km/h (2 Bft) W-SW 249 0 min 0 W/m 0,9 C 0,9 C 12,9 km/h (3 Bft)
03.02.2019 21:30 2,2 C 91 % 1020,7 hPa 0,0 l/m 7,3 km/h (2 Bft) W-SW 249 0 min 0 W/m 0,9 C 1,3 C 12,9 km/h (3 Bft)
03.02.2019 21:33 2,2 C 91 % 1020,7 hPa 0,0 l/m 6,1 km/h (2 Bft) W-SW 249 0 min 0 W/m 0,9 C 2,2 C 11,3 km/h (2 Bft)
03.02.2019 21:36 2,2 C 91 % 1020,8 hPa 0,0 l/m 5,0 km/h (1 Bft) W-SW 249 0 min 0 W/m 0,9 C 2,2 C 11,3 km/h (2 Bft)
03.02.2019 21:39 2,2 C 91 % 1020,8 hPa 0,0 l/m 5,7 km/h (2 Bft) W-SW 249 0 min 0 W/m 0,9 C 2,2 C 11,3 km/h (2 Bft)
03.02.2019 21:42 2,1 C 91 % 1020,8 hPa 0,0 l/m 4,0 km/h (1 Bft) W-SW 249 0 min 0 W/m 0,8 C 2,1 C 6,4 km/h (2 Bft)
03.02.2019 21:45 2,1 C 91 % 1020,9 hPa 0,0 l/m 6,4 km/h (2 Bft) W-SW 249 0 min 0 W/m 0,8 C 2,1 C 12,9 km/h (3 Bft)
03.02.2019 21:48 2,1 C 92 % 1020,9 hPa 0,0 l/m 6,2 km/h (2 Bft) W-SW 249 0 min 0 W/m 0,9 C 2,1 C 14,5 km/h (3 Bft)
03.02.2019 21:51 2,1 C 92 % 1020,9 hPa 0,0 l/m 5,5 km/h (2 Bft) W-SW 248 0 min 0 W/m 0,9 C 2,1 C 14,5 km/h (3 Bft)
03.02.2019 21:54 2,1 C 92 % 1020,9 hPa 0,0 l/m 4,6 km/h (1 Bft) W-SW 248 0 min 0 W/m 0,9 C 2,1 C 11,3 km/h (2 Bft)
03.02.2019 21:57 2,1 C 92 % 1020,9 hPa 0,0 l/m 4,2 km/h (1 Bft) W-SW 248 0 min 0 W/m 0,9 C 2,1 C 11,3 km/h (2 Bft)
03.02.2019 22:00 2,1 C 92 % 1020,9 hPa 0,0 l/m 5,1 km/h (1 Bft) W-SW 248 0 min 0 W/m 0,9 C 2,1 C 11,3 km/h (2 Bft)
03.02.2019 22:03 2,1 C 92 % 1021,0 hPa 0,0 l/m 5,8 km/h (2 Bft) W-SW 248 0 min 0 W/m 0,9 C 2,1 C 12,9 km/h (3 Bft)
03.02.2019 22:06 2,1 C 92 % 1021,0 hPa 0,0 l/m 5,7 km/h (2 Bft) W-SW 248 0 min 0 W/m 0,9 C 2,1 C 8,0 km/h (2 Bft)
03.02.2019 22:09 2,1 C 92 % 1021,0 hPa 0,0 l/m 6,1 km/h (2 Bft) W-SW 248 0 min 0 W/m 0,9 C 2,1 C 11,3 km/h (2 Bft)
03.02.2019 22:12 2,0 C 92 % 1021,1 hPa 0,0 l/m 6,5 km/h (2 Bft) W-SW 248 0 min 0 W/m 0,8 C 1,9 C 11,3 km/h (2 Bft)
03.02.2019 22:15 2,0 C 92 % 1021,1 hPa 0,0 l/m 8,2 km/h (2 Bft) W-SW 246 0 min 0 W/m 0,8 C 0,3 C 16,1 km/h (3 Bft)
03.02.2019 22:18 2,0 C 92 % 1021,0 hPa 0,0 l/m 6,8 km/h (2 Bft) W-SW 246 0 min 0 W/m 0,8 C 1,6 C 12,9 km/h (3 Bft)
03.02.2019 22:21 2,0 C 92 % 1021,1 hPa 0,0 l/m 6,6 km/h (2 Bft) W-SW 246 0 min 0 W/m 0,8 C 1,8 C 12,9 km/h (3 Bft)
03.02.2019 22:24 2,0 C 92 % 1021,1 hPa 0,0 l/m 5,5 km/h (2 Bft) W-SW 246 0 min 0 W/m 0,8 C 2,0 C 11,3 km/h (2 Bft)
03.02.2019 22:27 2,0 C 92 % 1021,1 hPa 0,0 l/m 6,0 km/h (2 Bft) W-SW 246 0 min 0 W/m 0,8 C 2,0 C 11,3 km/h (2 Bft)
03.02.2019 22:30 2,1 C 92 % 1021,1 hPa 0,0 l/m 6,7 km/h (2 Bft) W-SW 246 0 min 0 W/m 0,9 C 1,8 C 12,9 km/h (3 Bft)
03.02.2019 22:33 2,0 C 92 % 1021,2 hPa 0,0 l/m 6,4 km/h (2 Bft) W-SW 245 0 min 0 W/m 0,8 C 2,0 C 11,3 km/h (2 Bft)
03.02.2019 22:36 2,1 C 92 % 1021,2 hPa 0,0 l/m 3,2 km/h (1 Bft) W-SW 245 0 min 0 W/m 0,9 C 2,1 C 3,2 km/h (1 Bft)
03.02.2019 22:39 2,0 C 92 % 1021,2 hPa 0,0 l/m 8,7 km/h (2 Bft) W-SW 244 0 min 0 W/m 0,8 C -0,2 C 12,9 km/h (3 Bft)
03.02.2019 22:42 2,0 C 92 % 1021,2 hPa 0,0 l/m 7,0 km/h (2 Bft) W-SW 244 0 min 0 W/m 0,8 C 1,4 C 11,3 km/h (2 Bft)
03.02.2019 22:45 2,0 C 92 % 1021,1 hPa 0,0 l/m 6,9 km/h (2 Bft) W-SW 244 0 min 0 W/m 0,8 C 1,5 C 12,9 km/h (3 Bft)
03.02.2019 22:48 2,0 C 92 % 1021,1 hPa 0,0 l/m 6,7 km/h (2 Bft) W-SW 244 0 min 0 W/m 0,8 C 1,7 C 12,9 km/h (3 Bft)
03.02.2019 22:51 2,0 C 92 % 1021,1 hPa 0,0 l/m 6,0 km/h (2 Bft) W-SW 244 0 min 0 W/m 0,8 C 2,0 C 11,3 km/h (2 Bft)
03.02.2019 22:54 1,9 C 92 % 1021,1 hPa 0,0 l/m 6,1 km/h (2 Bft) W-SW 244 0 min 0 W/m 0,7 C 1,9 C 11,3 km/h (2 Bft)
03.02.2019 22:57 1,9 C 92 % 1021,2 hPa 0,0 l/m 6,4 km/h (2 Bft) W-SW 244 0 min 0 W/m 0,7 C 1,9 C 11,3 km/h (2 Bft)
03.02.2019 23:00 1,8 C 92 % 1021,2 hPa 0,0 l/m 6,9 km/h (2 Bft) W-SW 244 0 min 0 W/m 0,6 C 1,3 C 12,9 km/h (3 Bft)
03.02.2019 23:03 1,8 C 92 % 1021,2 hPa 0,0 l/m 7,4 km/h (2 Bft) W-SW 244 0 min 0 W/m 0,6 C 0,8 C 12,9 km/h (3 Bft)
03.02.2019 23:06 1,8 C 92 % 1021,2 hPa 0,0 l/m 7,1 km/h (2 Bft) W-SW 244 0 min 0 W/m 0,6 C 1,1 C 11,3 km/h (2 Bft)
03.02.2019 23:09 1,8 C 92 % 1021,3 hPa 0,0 l/m 6,8 km/h (2 Bft) W-SW 244 0 min 0 W/m 0,6 C 1,4 C 12,9 km/h (3 Bft)
03.02.2019 23:12 1,7 C 92 % 1021,2 hPa 0,0 l/m 6,8 km/h (2 Bft) W-SW 244 0 min 0 W/m 0,5 C 1,3 C 11,3 km/h (2 Bft)
03.02.2019 23:15 1,7 C 92 % 1021,3 hPa 0,0 l/m 7,8 km/h (2 Bft) W-SW 243 0 min 0 W/m 0,5 C 0,3 C 14,5 km/h (3 Bft)
03.02.2019 23:18 1,7 C 92 % 1021,3 hPa 0,0 l/m 7,4 km/h (2 Bft) W-SW 242 0 min 0 W/m 0,5 C 0,7 C 14,5 km/h (3 Bft)
03.02.2019 23:21 1,7 C 92 % 1021,4 hPa 0,0 l/m 6,3 km/h (2 Bft) W-SW 242 0 min 0 W/m 0,5 C 1,7 C 8,0 km/h (2 Bft)
03.02.2019 23:24 1,7 C 92 % 1021,3 hPa 0,0 l/m 6,9 km/h (2 Bft) W-SW 242 0 min 0 W/m 0,5 C 1,2 C 12,9 km/h (3 Bft)
03.02.2019 23:27 1,7 C 92 % 1021,3 hPa 0,0 l/m 7,1 km/h (2 Bft) W-SW 242 0 min 0 W/m 0,5 C 1,0 C 12,9 km/h (3 Bft)
03.02.2019 23:30 1,7 C 92 % 1021,3 hPa 0,0 l/m 7,2 km/h (2 Bft) W-SW 242 0 min 0 W/m 0,5 C 0,9 C 12,9 km/h (3 Bft)
03.02.2019 23:33 1,7 C 92 % 1021,4 hPa 0,0 l/m 8,0 km/h (2 Bft) W-SW 242 0 min 0 W/m 0,5 C 0,1 C 14,5 km/h (3 Bft)
03.02.2019 23:36 1,6 C 92 % 1021,4 hPa 0,0 l/m 8,3 km/h (2 Bft) W-SW 241 0 min 0 W/m 0,4 C -0,2 C 12,9 km/h (3 Bft)
03.02.2019 23:39 1,6 C 92 % 1021,4 hPa 0,0 l/m 8,7 km/h (2 Bft) W-SW 239 0 min 0 W/m 0,4 C -0,6 C 14,5 km/h (3 Bft)
03.02.2019 23:42 1,5 C 92 % 1021,4 hPa 0,0 l/m 7,8 km/h (2 Bft) W-SW 239 0 min 0 W/m 0,3 C 0,1 C 12,9 km/h (3 Bft)
03.02.2019 23:45 1,4 C 92 % 1021,4 hPa 0,0 l/m 5,6 km/h (2 Bft) W-SW 239 0 min 0 W/m 0,2 C 1,4 C 8,0 km/h (2 Bft)
03.02.2019 23:48 1,4 C 92 % 1021,4 hPa 0,0 l/m 5,4 km/h (2 Bft) W-SW 239 0 min 0 W/m 0,2 C 1,4 C 9,7 km/h (2 Bft)
03.02.2019 23:51 1,3 C 92 % 1021,4 hPa 0,0 l/m 5,0 km/h (1 Bft) W-SW 239 0 min 0 W/m 0,1 C 1,3 C 8,0 km/h (2 Bft)
03.02.2019 23:54 1,3 C 92 % 1021,4 hPa 0,0 l/m 5,3 km/h (1 Bft) W-SW 239 0 min 0 W/m 0,1 C 1,3 C 8,0 km/h (2 Bft)
03.02.2019 23:57 1,3 C 92 % 1021,4 hPa 0,0 l/m 6,7 km/h (2 Bft) W-SW 239 0 min 0 W/m 0,1 C 1,0 C 9,7 km/h (2 Bft)
_ Min-Zeit 23:51 13:36 00:00 - 11:24 - - - - 23:51 03:18 22:36
Minimum _ 1,3 C 83 % 1006,4 hPa - 1,5 km/h (1 Bft) - - - - 0,1 C -5,0 C 3,2 km/h (1 Bft)
_ Max-Zeit 13:51 00:00 23:21 07:27 03:18 - - 12:36 12:42 13:00 14:06 03:12
Maximum _ 5,4 C 94 % 1021,4 hPa 0,2 l/m 15,0 km/h
NW (3 Bft)
- - 3 min 420 W/m 3,4 C 5,4 C 29,0 km/h
N-NW (5 Bft)
Durchschnitt _ 2,8 C 90 % 1014,9 hPa #0,2 l/m 7,5 km/h (2 Bft) NW - #2:36 h 103 W/m 1,4 C 1,4 C 14,0 km/h (3 Bft)
2019 Cux-Wetter.de -Die Nutzung der Wetterdaten nur mit ausdrcklicher Genehmigung